Time,TemperatureF,DewpointF,PressureIn,WindDirection,WindDirectionDegrees,WindSpeedMPH,WindSpeedGustMPH,Humidity,HourlyPrecipIn,Conditions,Clouds,dailyrainin,SoftwareType,DateUTC
2013-09-08 00:02:00,80.2,60.5,29.90,South,180,0.0,0.0,51,0.00,,BKN090,0.00,VWS V14.01,2013-09-08 05:02:00,
2013-09-08 00:08:00,80.0,60.8,29.90,NNW,338,42.4,42.4,52,0.00,,BKN090,0.00,VWS V14.01,2013-09-08 05:08:00,
2013-09-08 00:09:00,80.0,60.8,29.90,South,180,0.0,0.0,52,0.00,,BKN090,0.00,VWS V14.01,2013-09-08 05:09:00,
2013-09-08 00:10:00,80.0,60.8,29.90,South,180,0.0,0.0,52,0.00,,BKN090,0.00,VWS V14.01,2013-09-08 05:10:00,
2013-09-08 00:11:00,80.0,60.8,29.90,South,180,0.0,0.0,52,0.00,,BKN090,0.00,VWS V14.01,2013-09-08 05:11:00,
2013-09-08 00:13:00,79.8,60.6,29.90,South,180,0.0,0.0,52,0.00,,BKN090,0.00,VWS V14.01,2013-09-08 05:13:00,
2013-09-08 00:16:00,79.8,60.6,29.89,South,180,0.0,0.0,52,0.00,,BKN090,0.00,VWS V14.01,2013-09-08 05:16:00,
2013-09-08 00:17:00,80.0,60.8,29.89,South,180,0.0,0.0,52,0.00,,BKN090,0.00,VWS V14.01,2013-09-08 05:17:00,
2013-09-08 00:18:00,79.8,60.6,29.89,South,180,0.0,0.0,52,0.00,,BKN090,0.00,VWS V14.01,2013-09-08 05:18:00,
2013-09-08 00:20:00,79.7,60.5,29.89,South,180,0.0,0.0,52,0.00,,BKN090,0.00,VWS V14.01,2013-09-08 05:20:00,
2013-09-08 00:22:00,79.7,60.5,29.90,South,180,0.0,0.0,52,0.00,,BKN090,0.00,VWS V14.01,2013-09-08 05:22:00,
2013-09-08 00:24:00,79.7,60.5,29.89,South,180,0.0,0.0,52,0.00,,BKN090,0.00,VWS V14.01,2013-09-08 05:24:00,
2013-09-08 00:26:00,79.5,60.3,29.89,South,180,0.0,0.0,52,0.00,,BKN090,0.00,VWS V14.01,2013-09-08 05:26:00,
2013-09-08 00:27:00,79.5,60.3,29.90,South,180,0.0,0.0,52,0.00,,BKN090,0.00,VWS V14.01,2013-09-08 05:27:00,
2013-09-08 00:28:00,79.5,60.9,29.90,South,180,0.0,0.0,53,0.00,,BKN090,0.00,VWS V14.01,2013-09-08 05:28:00,
2013-09-08 00:30:00,79.5,60.9,29.90,South,180,0.0,0.0,53,0.00,,BKN090,0.00,VWS V14.01,2013-09-08 05:30:00,
2013-09-08 00:31:00,79.5,60.9,29.90,South,180,0.0,0.0,53,0.00,,BKN090,0.00,VWS V14.01,2013-09-08 05:31:00,
2013-09-08 00:32:00,79.5,60.9,29.90,South,180,0.0,0.0,53,0.00,,BKN090,0.00,VWS V14.01,2013-09-08 05:32:00,
2013-09-08 00:35:00,79.5,61.4,29.89,South,180,0.0,0.0,54,0.00,,BKN090,0.00,VWS V14.01,2013-09-08 05:35:00,
2013-09-08 00:36:00,79.5,61.4,29.89,South,180,0.0,0.0,54,0.00,,BKN090,0.00,VWS V14.01,2013-09-08 05:36:00,
2013-09-08 00:37:00,79.5,61.4,29.90,South,180,0.0,0.0,54,0.00,,BKN090,0.00,VWS V14.01,2013-09-08 05:37:00,
2013-09-08 00:38:00,79.3,61.2,29.90,South,180,0.0,0.0,54,0.00,,BKN090,0.00,VWS V14.01,2013-09-08 05:38:00,
2013-09-08 00:41:00,79.5,61.4,29.90,South,180,0.0,0.0,54,0.00,,SCT075,0.00,VWS V14.01,2013-09-08 05:41:00,
2013-09-08 00:42:00,79.3,61.2,29.90,South,180,0.0,0.0,54,0.00,,SCT075,0.00,VWS V14.01,2013-09-08 05:42:00,
2013-09-08 00:43:00,79.3,61.2,29.90,South,180,0.0,0.0,54,0.00,,SCT075,0.00,VWS V14.01,2013-09-08 05:43:00,
2013-09-08 00:44:00,79.1,61.0,29.90,South,180,0.0,0.0,54,0.00,,SCT075,0.00,VWS V14.01,2013-09-08 05:44:00,
2013-09-08 00:46:00,79.1,61.0,29.90,South,180,0.0,0.0,54,0.00,,SCT075,0.00,VWS V14.01,2013-09-08 05:46:00,
2013-09-08 00:47:00,79.5,61.4,29.90,South,180,0.0,0.0,54,0.00,,SCT075,0.00,VWS V14.01,2013-09-08 05:47:00,
2013-09-08 00:48:00,79.1,61.0,29.90,South,180,0.0,0.0,54,0.00,,SCT075,0.00,VWS V14.01,2013-09-08 05:48:00,
2013-09-08 00:51:00,79.1,61.0,29.90,South,180,0.0,0.0,54,0.00,,SCT075,0.00,VWS V14.01,2013-09-08 05:51:00,
2013-09-08 00:52:00,79.1,61.0,29.89,South,180,0.0,0.0,54,0.00,,SCT075,0.00,VWS V14.01,2013-09-08 05:52:00,
2013-09-08 00:54:00,79.1,61.0,29.89,South,180,0.0,0.0,54,0.00,,SCT075,0.00,VWS V14.01,2013-09-08 05:54:00,
2013-09-08 00:55:00,78.9,60.9,29.89,South,180,0.0,0.0,54,0.00,,SCT075,0.00,VWS V14.01,2013-09-08 05:55:00,
2013-09-08 00:56:00,78.9,60.9,29.89,South,180,0.0,0.0,54,0.00,,SCT075,0.00,VWS V14.01,2013-09-08 05:56:00,
2013-09-08 00:59:00,78.9,60.9,29.89,South,180,0.0,0.0,54,0.00,,SCT075,0.00,VWS V14.01,2013-09-08 05:59:00,
2013-09-08 01:01:00,78.9,61.4,29.89,South,180,0.0,0.0,55,0.00,,SCT075,0.00,VWS V14.01,2013-09-08 06:01:00,
2013-09-08 01:02:00,78.9,61.4,29.89,South,180,0.0,0.0,55,0.00,,SCT075,0.00,VWS V14.01,2013-09-08 06:02:00,
2013-09-08 01:04:00,78.9,61.4,29.89,South,180,0.0,0.0,55,0.00,,SCT075,0.00,VWS V14.01,2013-09-08 06:04:00,
2013-09-08 01:05:00,78.9,61.4,29.89,South,180,0.0,0.0,55,0.00,,SCT075,0.00,VWS V14.01,2013-09-08 06:05:00,
2013-09-08 01:06:00,78.9,61.4,29.89,South,180,0.0,0.0,55,0.00,,SCT075,0.00,VWS V14.01,2013-09-08 06:06:00,
2013-09-08 01:09:00,78.9,61.4,29.89,South,180,0.0,0.0,55,0.00,,SCT075,0.00,VWS V14.01,2013-09-08 06:09:00,
2013-09-08 01:10:00,78.9,61.4,29.89,South,180,0.0,0.0,55,0.00,,SCT075,0.00,VWS V14.01,2013-09-08 06:10:00,
2013-09-08 01:11:00,78.8,61.3,29.89,South,180,0.0,0.0,55,0.00,,SCT075,0.00,VWS V14.01,2013-09-08 06:11:00,
2013-09-08 01:12:00,78.6,61.1,29.89,South,180,0.0,0.0,55,0.00,,SCT075,0.00,VWS V14.01,2013-09-08 06:12:00,
2013-09-08 01:13:00,78.6,61.1,29.89,South,180,0.0,0.0,55,0.00,,SCT075,0.00,VWS V14.01,2013-09-08 06:13:00,
2013-09-08 01:14:00,78.6,61.1,29.89,South,180,0.0,0.0,55,0.00,,SCT075,0.00,VWS V14.01,2013-09-08 06:14:00,
2013-09-08 01:16:00,78.6,61.1,29.89,South,180,0.0,0.0,55,0.00,,SCT075,0.00,VWS V14.01,2013-09-08 06:16:00,
2013-09-08 01:18:00,78.6,61.6,29.89,South,180,0.0,0.0,56,0.00,,SCT075,0.00,VWS V14.01,2013-09-08 06:18:00,
2013-09-08 01:20:00,78.4,61.4,29.89,South,180,0.0,0.0,56,0.00,,SCT075,0.00,VWS V14.01,2013-09-08 06:20:00,
2013-09-08 01:21:00,78.4,61.4,29.89,South,180,0.0,0.0,56,0.00,,SCT075,0.00,VWS V14.01,2013-09-08 06:21:00,
2013-09-08 01:24:00,78.4,61.4,29.89,South,180,0.0,0.0,56,0.00,,SCT075,0.00,VWS V14.01,2013-09-08 06:24:00,
2013-09-08 01:25:00,78.2,61.2,29.89,South,180,0.0,0.0,56,0.00,,SCT075,0.00,VWS V14.01,2013-09-08 06:25:00,
2013-09-08 01:28:00,78.2,61.2,29.88,South,180,0.0,0.0,56,0.00,,SCT075,0.00,VWS V14.01,2013-09-08 06:28:00,
2013-09-08 01:30:00,78.2,61.2,29.88,South,180,0.0,0.0,56,0.00,,SCT075,0.00,VWS V14.01,2013-09-08 06:30:00,
2013-09-08 01:32:00,78.2,61.2,29.88,North,0,0.0,0.0,56,0.00,,SCT075,0.00,VWS V14.01,2013-09-08 06:32:00,
2013-09-08 01:34:00,78.0,61.0,29.88,South,180,0.0,0.0,56,0.00,,SCT075,0.00,VWS V14.01,2013-09-08 06:34:00,
2013-09-08 01:36:00,78.0,61.0,29.88,SSE,158,0.0,0.0,56,0.00,,SCT075,0.00,VWS V14.01,2013-09-08 06:36:00,
2013-09-08 01:38:00,78.0,61.0,29.88,SSE,158,0.0,0.0,56,0.00,,SCT075,0.00,VWS V14.01,2013-09-08 06:38:00,
2013-09-08 01:39:00,78.0,61.5,29.88,SSE,158,0.0,0.0,57,0.00,,SCT075,0.00,VWS V14.01,2013-09-08 06:39:00,
2013-09-08 01:40:00,78.0,61.5,29.88,SSE,158,0.0,0.0,57,0.00,,CLR,0.00,VWS V14.01,2013-09-08 06:40:00,
2013-09-08 01:42:00,77.9,61.5,29.88,SSE,158,0.0,0.0,57,0.00,,CLR,0.00,VWS V14.01,2013-09-08 06:42:00,
2013-09-08 01:43:00,77.9,61.5,29.88,SSE,158,0.0,0.0,57,0.00,,CLR,0.00,VWS V14.01,2013-09-08 06:43:00,
2013-09-08 01:46:00,77.9,61.5,29.88,SSE,158,0.0,0.0,57,0.00,,CLR,0.00,VWS V14.01,2013-09-08 06:46:00,
2013-09-08 01:48:00,77.7,61.8,29.88,SSE,158,0.0,0.0,58,0.00,,CLR,0.00,VWS V14.01,2013-09-08 06:48:00,
2013-09-08 01:50:00,77.9,62.0,29.88,SSE,158,0.0,0.0,58,0.00,,CLR,0.00,VWS V14.01,2013-09-08 06:50:00,
2013-09-08 01:51:00,77.9,62.0,29.88,SSE,158,0.0,0.0,58,0.00,,CLR,0.00,VWS V14.01,2013-09-08 06:51:00,
2013-09-08 01:52:00,77.7,61.8,29.88,SSE,158,0.0,0.0,58,0.00,,CLR,0.00,VWS V14.01,2013-09-08 06:52:00,
2013-09-08 01:56:00,77.7,61.8,29.88,SSE,158,0.0,0.0,58,0.00,,CLR,0.00,VWS V14.01,2013-09-08 06:56:00,
2013-09-08 01:57:00,77.7,61.8,29.88,SSE,158,0.0,0.0,58,0.00,,CLR,0.00,VWS V14.01,2013-09-08 06:57:00,
2013-09-08 01:59:00,77.7,61.8,29.88,SSE,158,0.0,0.0,58,0.00,,CLR,0.00,VWS V14.01,2013-09-08 06:59:00,
2013-09-08 02:00:00,77.5,61.6,29.88,SSE,158,0.0,0.0,58,0.00,,CLR,0.00,VWS V14.01,2013-09-08 07:00:00,
2013-09-08 02:01:00,77.5,61.6,29.88,SSE,158,0.0,0.0,58,0.00,,CLR,0.00,VWS V14.01,2013-09-08 07:01:00,
2013-09-08 02:02:00,77.5,61.6,29.88,SSE,158,0.0,0.0,58,0.00,,CLR,0.00,VWS V14.01,2013-09-08 07:02:00,
2013-09-08 02:04:00,77.3,61.4,29.88,SSE,158,0.0,0.0,58,0.00,,CLR,0.00,VWS V14.01,2013-09-08 07:04:00,
2013-09-08 02:06:00,77.5,62.1,29.88,East,90,0.0,0.0,59,0.00,,CLR,0.00,VWS V14.01,2013-09-08 07:06:00,
2013-09-08 02:09:00,77.5,62.1,29.88,East,90,0.0,0.0,59,0.00,,CLR,0.00,VWS V14.01,2013-09-08 07:09:00,
2013-09-08 02:10:00,77.3,61.9,29.88,East,90,0.0,0.0,59,0.00,,CLR,0.00,VWS V14.01,2013-09-08 07:10:00,
2013-09-08 02:12:00,77.3,61.9,29.88,East,90,0.0,0.0,59,0.00,,CLR,0.00,VWS V14.01,2013-09-08 07:12:00,
2013-09-08 02:15:00,77.3,61.9,29.88,East,90,0.0,0.0,59,0.00,,CLR,0.00,VWS V14.01,2013-09-08 07:15:00,
2013-09-08 02:16:00,77.3,61.9,29.88,East,90,0.0,0.0,59,0.00,,CLR,0.00,VWS V14.01,2013-09-08 07:16:00,
2013-09-08 02:17:00,77.3,62.3,29.88,East,90,0.0,0.0,60,0.00,,CLR,0.00,VWS V14.01,2013-09-08 07:17:00,
2013-09-08 02:19:00,77.3,62.3,29.88,East,90,0.0,0.0,60,0.00,,CLR,0.00,VWS V14.01,2013-09-08 07:19:00,
2013-09-08 02:20:00,77.3,62.3,29.88,East,90,0.0,0.0,60,0.00,,CLR,0.00,VWS V14.01,2013-09-08 07:20:00,
2013-09-08 02:21:00,77.3,62.3,29.88,East,90,0.0,0.0,60,0.00,,CLR,0.00,VWS V14.01,2013-09-08 07:21:00,
2013-09-08 02:22:00,77.3,62.3,29.88,East,90,0.0,0.0,60,0.00,,CLR,0.00,VWS V14.01,2013-09-08 07:22:00,
2013-09-08 02:27:00,77.3,62.3,29.88,ENE,68,0.0,0.0,60,0.00,,CLR,0.00,VWS V14.01,2013-09-08 07:27:00,
2013-09-08 02:28:00,77.1,62.2,29.88,ENE,68,0.0,0.0,60,0.00,,CLR,0.00,VWS V14.01,2013-09-08 07:28:00,
2013-09-08 02:30:00,77.1,62.2,29.89,ENE,68,0.0,0.0,60,0.00,,CLR,0.00,VWS V14.01,2013-09-08 07:30:00,
2013-09-08 02:31:00,77.1,62.2,29.89,ENE,68,0.0,0.0,60,0.00,,CLR,0.00,VWS V14.01,2013-09-08 07:31:00,
2013-09-08 02:32:00,77.1,62.2,29.89,ENE,68,0.0,0.0,60,0.00,,CLR,0.00,VWS V14.01,2013-09-08 07:32:00,
2013-09-08 02:34:00,77.1,62.2,29.89,ENE,68,0.0,0.0,60,0.00,,CLR,0.00,VWS V14.01,2013-09-08 07:34:00,
2013-09-08 02:36:00,77.1,62.2,29.89,East,90,0.0,0.0,60,0.00,,CLR,0.00,VWS V14.01,2013-09-08 07:36:00,
2013-09-08 02:37:00,77.1,62.2,29.89,East,90,0.0,0.0,60,0.00,,CLR,0.00,VWS V14.01,2013-09-08 07:37:00,
2013-09-08 02:38:00,77.1,62.2,29.89,ENE,68,0.0,0.0,60,0.00,,CLR,0.00,VWS V14.01,2013-09-08 07:38:00,
2013-09-08 02:41:00,77.1,62.6,29.89,East,90,0.0,0.0,61,0.00,,CLR,0.00,VWS V14.01,2013-09-08 07:41:00,
2013-09-08 02:43:00,77.0,62.5,29.89,East,90,0.0,0.0,61,0.00,,CLR,0.00,VWS V14.01,2013-09-08 07:43:00,
2013-09-08 02:46:00,76.8,62.3,29.89,NE,45,0.0,0.0,61,0.00,,CLR,0.00,VWS V14.01,2013-09-08 07:46:00,
2013-09-08 02:47:00,76.8,62.3,29.89,NE,45,0.0,0.0,61,0.00,,CLR,0.00,VWS V14.01,2013-09-08 07:47:00,
2013-09-08 02:48:00,76.8,62.3,29.89,ENE,68,0.0,0.0,61,0.00,,CLR,0.00,VWS V14.01,2013-09-08 07:48:00,
2013-09-08 02:50:00,77.0,62.5,29.89,ENE,68,3.4,3.4,61,0.00,,CLR,0.00,VWS V14.01,2013-09-08 07:50:00,
2013-09-08 02:52:00,76.8,62.3,29.89,ENE,68,0.0,3.4,61,0.00,,CLR,0.00,VWS V14.01,2013-09-08 07:52:00,
2013-09-08 02:54:00,76.8,62.3,29.89,ENE,68,0.0,0.0,61,0.00,,CLR,0.00,VWS V14.01,2013-09-08 07:54:00,
2013-09-08 02:56:00,76.8,62.3,29.89,NE,45,0.0,1.2,61,0.00,,CLR,0.00,VWS V14.01,2013-09-08 07:56:00,
2013-09-08 02:57:00,76.8,62.3,29.89,NE,45,0.0,0.0,61,0.00,,CLR,0.00,VWS V14.01,2013-09-08 07:57:00,
2013-09-08 03:00:00,76.8,62.3,29.89,NNE,22,0.0,0.0,61,0.00,,CLR,0.00,VWS V14.01,2013-09-08 08:00:00,
2013-09-08 03:02:00,76.8,62.3,29.89,NNE,22,0.0,0.0,61,0.00,,CLR,0.00,VWS V14.01,2013-09-08 08:02:00,
2013-09-08 03:04:00,76.6,62.2,29.89,NNE,22,0.0,0.0,61,0.00,,CLR,0.00,VWS V14.01,2013-09-08 08:04:00,
2013-09-08 03:05:00,76.6,62.2,29.89,NNE,22,0.0,0.0,61,0.00,,CLR,0.00,VWS V14.01,2013-09-08 08:05:00,
2013-09-08 03:06:00,76.6,62.2,29.89,NE,45,0.0,0.0,61,0.00,,CLR,0.00,VWS V14.01,2013-09-08 08:06:00,
2013-09-08 03:07:00,76.6,62.2,29.89,NE,45,0.0,0.0,61,0.00,,CLR,0.00,VWS V14.01,2013-09-08 08:07:00,
2013-09-08 03:10:00,76.6,62.2,29.89,ENE,68,0.0,0.0,61,0.00,,CLR,0.00,VWS V14.01,2013-09-08 08:10:00,
2013-09-08 03:12:00,76.4,62.0,29.89,ENE,68,0.0,0.0,61,0.00,,CLR,0.00,VWS V14.01,2013-09-08 08:12:00,
2013-09-08 03:16:00,76.4,62.0,29.89,NE,45,0.0,0.0,61,0.00,,CLR,0.00,VWS V14.01,2013-09-08 08:16:00,
2013-09-08 03:17:00,76.4,62.0,29.89,NE,45,0.0,0.0,61,0.00,,CLR,0.00,VWS V14.01,2013-09-08 08:17:00,
2013-09-08 03:20:00,76.2,61.8,29.88,NE,45,0.0,0.0,61,0.00,,CLR,0.00,VWS V14.01,2013-09-08 08:20:00,
2013-09-08 03:21:00,76.2,61.8,29.88,NE,45,0.0,0.0,61,0.00,,CLR,0.00,VWS V14.01,2013-09-08 08:21:00,
2013-09-08 03:22:00,76.2,61.8,29.88,ENE,68,0.0,0.0,61,0.00,,CLR,0.00,VWS V14.01,2013-09-08 08:22:00,
2013-09-08 03:24:00,76.1,61.7,29.88,NE,45,0.0,0.0,61,0.00,,CLR,0.00,VWS V14.01,2013-09-08 08:24:00,
2013-09-08 03:26:00,76.1,61.7,29.88,NE,45,0.0,0.0,61,0.00,,CLR,0.00,VWS V14.01,2013-09-08 08:26:00,
2013-09-08 03:27:00,76.1,61.7,29.88,ENE,68,1.2,1.2,61,0.00,,CLR,0.00,VWS V14.01,2013-09-08 08:27:00,
2013-09-08 03:29:00,76.1,61.7,29.88,ENE,68,0.0,0.0,61,0.00,,CLR,0.00,VWS V14.01,2013-09-08 08:29:00,
2013-09-08 03:30:00,76.2,61.8,29.88,ENE,68,0.0,0.0,61,0.00,,CLR,0.00,VWS V14.01,2013-09-08 08:30:00,
2013-09-08 03:31:00,76.1,61.7,29.88,ENE,68,0.0,0.0,61,0.00,,CLR,0.00,VWS V14.01,2013-09-08 08:31:00,
2013-09-08 03:34:00,76.1,62.2,29.89,ENE,68,0.0,0.0,62,0.00,,CLR,0.00,VWS V14.01,2013-09-08 08:34:00,
2013-09-08 03:35:00,76.1,62.2,29.89,NE,45,0.0,0.0,62,0.00,,CLR,0.00,VWS V14.01,2013-09-08 08:35:00,
2013-09-08 03:36:00,75.9,62.0,29.89,NE,45,0.0,0.0,62,0.00,,CLR,0.00,VWS V14.01,2013-09-08 08:36:00,
2013-09-08 03:40:00,75.9,62.0,29.89,ENE,68,0.0,1.6,62,0.00,,BKN080,0.00,VWS V14.01,2013-09-08 08:40:00,
2013-09-08 03:41:00,75.9,62.0,29.89,NE,45,0.0,0.0,62,0.00,,BKN080,0.00,VWS V14.01,2013-09-08 08:41:00,
2013-09-08 03:43:00,75.9,62.0,29.89,ENE,68,0.0,0.0,62,0.00,,BKN080,0.00,VWS V14.01,2013-09-08 08:43:00,
2013-09-08 03:44:00,75.9,62.0,29.89,ENE,68,0.0,0.0,62,0.00,,BKN080,0.00,VWS V14.01,2013-09-08 08:44:00,
2013-09-08 03:46:00,75.9,62.4,29.89,ENE,68,0.0,0.0,63,0.00,,BKN080,0.00,VWS V14.01,2013-09-08 08:46:00,
2013-09-08 03:48:00,75.9,62.4,29.89,ENE,68,0.0,0.0,63,0.00,,BKN080,0.00,VWS V14.01,2013-09-08 08:48:00,
2013-09-08 03:51:00,75.7,62.2,29.89,ENE,68,0.0,4.8,63,0.00,,BKN080,0.00,VWS V14.01,2013-09-08 08:51:00,
2013-09-08 03:52:00,75.7,62.2,29.89,ENE,68,0.0,4.8,63,0.00,,BKN080,0.00,VWS V14.01,2013-09-08 08:52:00,
2013-09-08 03:54:00,75.5,62.0,29.89,ENE,68,0.0,0.0,63,0.00,,BKN080,0.00,VWS V14.01,2013-09-08 08:54:00,
2013-09-08 03:57:00,75.5,62.0,29.89,NE,45,0.0,0.0,63,0.00,,BKN080,0.00,VWS V14.01,2013-09-08 08:57:00,
2013-09-08 03:59:00,75.7,62.2,29.89,NE,45,2.2,2.2,63,0.00,,BKN080,0.00,VWS V14.01,2013-09-08 08:59:00,
2013-09-08 04:00:00,75.5,62.0,29.89,ENE,68,5.2,5.2,63,0.00,,BKN080,0.00,VWS V14.01,2013-09-08 09:00:00,
2013-09-08 04:02:00,75.7,62.2,29.89,ENE,68,0.0,0.0,63,0.00,,BKN080,0.00,VWS V14.01,2013-09-08 09:02:00,
2013-09-08 04:04:00,75.5,62.0,29.89,ENE,68,0.0,0.0,63,0.00,,BKN080,0.00,VWS V14.01,2013-09-08 09:04:00,
2013-09-08 04:05:00,75.5,62.0,29.89,East,90,0.0,0.0,63,0.00,,BKN080,0.00,VWS V14.01,2013-09-08 09:05:00,
2013-09-08 04:06:00,75.5,62.0,29.89,East,90,0.0,0.0,63,0.00,,BKN080,0.00,VWS V14.01,2013-09-08 09:06:00,
2013-09-08 04:08:00,75.7,62.2,29.89,East,90,0.0,0.0,63,0.00,,BKN080,0.00,VWS V14.01,2013-09-08 09:08:00,
2013-09-08 04:10:00,75.5,62.0,29.89,ENE,68,8.0,8.0,63,0.00,,BKN080,0.00,VWS V14.01,2013-09-08 09:10:00,
2013-09-08 04:13:00,75.5,62.0,29.89,NE,45,0.0,0.0,63,0.00,,BKN080,0.00,VWS V14.01,2013-09-08 09:13:00,
2013-09-08 04:14:00,75.5,62.0,29.89,ENE,68,0.0,0.0,63,0.00,,BKN080,0.00,VWS V14.01,2013-09-08 09:14:00,
2013-09-08 04:15:00,75.5,62.0,29.89,ENE,68,0.0,0.0,63,0.00,,BKN080,0.00,VWS V14.01,2013-09-08 09:15:00,
2013-09-08 04:16:00,75.5,62.0,29.89,NE,45,0.0,0.0,63,0.00,,BKN080,0.00,VWS V14.01,2013-09-08 09:16:00,
2013-09-08 04:18:00,75.5,62.0,29.89,NE,45,0.0,0.0,63,0.00,,BKN080,0.00,VWS V14.01,2013-09-08 09:18:00,
2013-09-08 04:20:00,75.5,62.0,29.89,NE,45,0.0,0.0,63,0.00,,BKN080,0.00,VWS V14.01,2013-09-08 09:20:00,
2013-09-08 04:24:00,75.5,62.0,29.89,ENE,68,3.4,3.4,63,0.00,,BKN080,0.00,VWS V14.01,2013-09-08 09:24:00,
2013-09-08 04:25:00,75.5,62.0,29.89,ENE,68,6.2,6.2,63,0.00,,BKN080,0.00,VWS V14.01,2013-09-08 09:25:00,
2013-09-08 04:26:00,75.5,62.0,29.90,ENE,68,3.4,3.4,63,0.00,,BKN080,0.00,VWS V14.01,2013-09-08 09:26:00,
2013-09-08 04:28:00,75.5,62.0,29.90,NE,45,4.8,4.8,63,0.00,,BKN080,0.00,VWS V14.01,2013-09-08 09:28:00,
2013-09-08 04:30:00,75.5,62.0,29.90,ENE,68,3.0,3.0,63,0.00,,BKN080,0.00,VWS V14.01,2013-09-08 09:30:00,
2013-09-08 04:31:00,75.5,62.0,29.90,NE,45,6.2,6.2,63,0.00,,BKN080,0.00,VWS V14.01,2013-09-08 09:31:00,
2013-09-08 04:34:00,75.5,62.0,29.90,ENE,68,0.0,6.6,63,0.00,,BKN080,0.00,VWS V14.01,2013-09-08 09:34:00,
2013-09-08 04:35:00,75.5,62.0,29.90,ENE,68,0.0,0.0,63,0.00,,BKN080,0.00,VWS V14.01,2013-09-08 09:35:00,
2013-09-08 04:37:00,75.5,62.0,29.90,ENE,68,1.2,1.2,63,0.00,,BKN080,0.00,VWS V14.01,2013-09-08 09:37:00,
2013-09-08 04:38:00,75.5,62.0,29.90,ENE,68,0.0,1.2,63,0.00,,BKN080,0.00,VWS V14.01,2013-09-08 09:38:00,
2013-09-08 04:39:00,75.5,61.6,29.90,ENE,68,0.0,0.0,62,0.00,,BKN080,0.00,VWS V14.01,2013-09-08 09:39:00,
2013-09-08 04:43:00,75.5,61.6,29.90,NE,45,0.0,7.6,62,0.00,,FEW080,0.00,VWS V14.01,2013-09-08 09:43:00,
2013-09-08 04:44:00,75.5,61.6,29.90,ENE,68,2.2,7.6,62,0.00,,FEW080,0.00,VWS V14.01,2013-09-08 09:44:00,
2013-09-08 04:49:00,75.5,61.6,29.91,ENE,68,0.0,1.6,62,0.00,,FEW080,0.00,VWS V14.01,2013-09-08 09:49:00,
2013-09-08 04:50:00,75.5,61.6,29.91,NE,45,0.0,1.6,62,0.00,,FEW080,0.00,VWS V14.01,2013-09-08 09:50:00,
2013-09-08 04:51:00,75.5,61.6,29.91,ENE,68,4.0,4.0,62,0.00,,FEW080,0.00,VWS V14.01,2013-09-08 09:51:00,
2013-09-08 04:55:00,75.3,61.4,29.91,NE,45,2.2,2.2,62,0.00,,FEW080,0.00,VWS V14.01,2013-09-08 09:55:00,
2013-09-08 04:56:00,75.5,61.6,29.91,ENE,68,0.0,2.2,62,0.00,,FEW080,0.00,VWS V14.01,2013-09-08 09:56:00,
2013-09-08 04:57:00,75.3,61.4,29.91,ENE,68,0.0,0.0,62,0.00,,FEW080,0.00,VWS V14.01,2013-09-08 09:57:00,
2013-09-08 04:59:00,75.5,61.6,29.91,East,90,0.0,0.0,62,0.00,,FEW080,0.00,VWS V14.01,2013-09-08 09:59:00,
2013-09-08 05:00:00,75.3,61.4,29.91,ENE,68,0.0,0.0,62,0.00,,FEW080,0.00,VWS V14.01,2013-09-08 10:00:00,
2013-09-08 05:02:00,75.3,61.4,29.91,ENE,68,0.0,0.0,62,0.00,,FEW080,0.00,VWS V14.01,2013-09-08 10:02:00,
2013-09-08 05:04:00,75.3,61.4,29.92,ENE,68,0.0,0.0,62,0.00,,FEW080,0.00,VWS V14.01,2013-09-08 10:04:00,
2013-09-08 05:05:00,75.3,61.4,29.92,ENE,68,0.0,0.0,62,0.00,,FEW080,0.00,VWS V14.01,2013-09-08 10:05:00,
2013-09-08 05:07:00,75.3,61.4,29.92,ENE,68,0.0,0.0,62,0.00,,FEW080,0.00,VWS V14.01,2013-09-08 10:07:00,
2013-09-08 05:08:00,75.3,61.4,29.92,NE,45,0.0,0.0,62,0.00,,FEW080,0.00,VWS V14.01,2013-09-08 10:08:00,
2013-09-08 05:09:00,75.3,61.4,29.92,NNE,22,0.0,0.0,62,0.00,,FEW080,0.00,VWS V14.01,2013-09-08 10:09:00,
2013-09-08 05:11:00,75.2,61.3,29.92,NE,45,0.0,0.0,62,0.00,,FEW080,0.00,VWS V14.01,2013-09-08 10:11:00,
2013-09-08 05:12:00,75.3,61.4,29.92,ENE,68,0.0,0.0,62,0.00,,FEW080,0.00,VWS V14.01,2013-09-08 10:12:00,
2013-09-08 05:14:00,75.2,61.3,29.92,NE,45,4.0,4.0,62,0.00,,FEW080,0.00,VWS V14.01,2013-09-08 10:14:00,
2013-09-08 05:18:00,75.2,61.3,29.91,East,90,0.0,0.0,62,0.00,,FEW080,0.00,VWS V14.01,2013-09-08 10:18:00,
2013-09-08 05:19:00,75.3,61.4,29.91,ENE,68,0.0,0.0,62,0.00,,FEW080,0.00,VWS V14.01,2013-09-08 10:19:00,
2013-09-08 05:21:00,75.3,61.4,29.91,NE,45,0.0,0.0,62,0.00,,FEW080,0.00,VWS V14.01,2013-09-08 10:21:00,
2013-09-08 05:24:00,75.3,61.4,29.91,ENE,68,0.0,2.2,62,0.00,,FEW080,0.00,VWS V14.01,2013-09-08 10:24:00,
2013-09-08 05:25:00,75.3,61.4,29.91,NE,45,2.6,2.6,62,0.00,,FEW080,0.00,VWS V14.01,2013-09-08 10:25:00,
2013-09-08 05:26:00,75.3,61.4,29.91,NE,45,1.2,2.6,62,0.00,,FEW080,0.00,VWS V14.01,2013-09-08 10:26:00,
2013-09-08 05:27:00,75.3,61.4,29.91,ENE,68,0.0,0.0,62,0.00,,FEW080,0.00,VWS V14.01,2013-09-08 10:27:00,
2013-09-08 05:30:00,75.3,61.4,29.91,ENE,68,0.0,3.4,62,0.00,,FEW080,0.00,VWS V14.01,2013-09-08 10:30:00,
2013-09-08 05:32:00,75.3,61.4,29.91,ENE,68,0.0,0.0,62,0.00,,FEW080,0.00,VWS V14.01,2013-09-08 10:32:00,
2013-09-08 05:34:00,75.3,61.4,29.91,ENE,68,4.4,4.4,62,0.00,,FEW080,0.00,VWS V14.01,2013-09-08 10:34:00,
2013-09-08 05:36:00,75.3,61.4,29.92,ENE,68,2.2,2.2,62,0.00,,FEW080,0.00,VWS V14.01,2013-09-08 10:36:00,
2013-09-08 05:37:00,75.3,61.4,29.92,ENE,68,0.0,0.0,62,0.00,,FEW080,0.00,VWS V14.01,2013-09-08 10:37:00,
2013-09-08 05:40:00,75.3,61.4,29.92,NE,45,4.0,4.0,62,0.00,,SCT080,0.00,VWS V14.01,2013-09-08 10:40:00,
2013-09-08 05:41:00,75.3,61.4,29.92,NE,45,4.0,4.0,62,0.00,,SCT080,0.00,VWS V14.01,2013-09-08 10:41:00,
2013-09-08 05:42:00,75.3,61.4,29.92,NE,45,0.0,4.0,62,0.00,,SCT080,0.00,VWS V14.01,2013-09-08 10:42:00,
2013-09-08 05:45:00,75.3,61.4,29.92,ENE,68,0.0,0.0,62,0.00,,SCT080,0.00,VWS V14.01,2013-09-08 10:45:00,
2013-09-08 05:47:00,75.3,61.4,29.92,NE,45,0.0,0.0,62,0.00,,SCT080,0.00,VWS V14.01,2013-09-08 10:47:00,
2013-09-08 05:48:00,75.3,61.4,29.92,ENE,68,2.6,2.6,62,0.00,,SCT080,0.00,VWS V14.01,2013-09-08 10:48:00,
2013-09-08 05:49:00,75.3,61.4,29.93,NE,45,0.0,0.0,62,0.00,,SCT080,0.00,VWS V14.01,2013-09-08 10:49:00,
2013-09-08 05:54:00,75.2,61.3,29.93,ENE,68,1.6,1.6,62,0.00,,SCT080,0.00,VWS V14.01,2013-09-08 10:54:00,
2013-09-08 05:56:00,75.2,61.3,29.93,ENE,68,0.0,0.0,62,0.00,,SCT080,0.00,VWS V14.01,2013-09-08 10:56:00,
2013-09-08 05:59:00,75.0,61.1,29.93,NE,45,4.8,4.8,62,0.00,,SCT080,0.00,VWS V14.01,2013-09-08 10:59:00,
2013-09-08 06:00:00,74.8,60.9,29.93,NE,45,0.0,4.8,62,0.00,,SCT080,0.00,VWS V14.01,2013-09-08 11:00:00,
2013-09-08 06:02:00,74.8,60.9,29.93,NE,45,0.0,2.6,62,0.00,,SCT080,0.00,VWS V14.01,2013-09-08 11:02:00,
2013-09-08 06:04:00,74.8,60.9,29.93,ENE,68,0.0,0.0,62,0.00,,SCT080,0.00,VWS V14.01,2013-09-08 11:04:00,
2013-09-08 06:05:00,74.8,60.9,29.93,East,90,0.0,0.0,62,0.00,,SCT080,0.00,VWS V14.01,2013-09-08 11:05:00,
2013-09-08 06:06:00,74.8,60.9,29.93,NE,45,0.0,0.0,62,0.00,,SCT080,0.00,VWS V14.01,2013-09-08 11:06:00,
2013-09-08 06:09:00,74.8,60.9,29.93,NE,45,0.0,0.0,62,0.00,,SCT080,0.00,VWS V14.01,2013-09-08 11:09:00,
2013-09-08 06:11:00,74.8,60.9,29.94,ENE,68,6.2,6.2,62,0.00,,SCT080,0.00,VWS V14.01,2013-09-08 11:11:00,
2013-09-08 06:12:00,74.8,60.9,29.93,ENE,68,0.0,6.2,62,0.00,,SCT080,0.00,VWS V14.01,2013-09-08 11:12:00,
2013-09-08 06:14:00,74.6,60.7,29.94,NE,45,0.0,6.6,62,0.00,,SCT080,0.00,VWS V14.01,2013-09-08 11:14:00,
2013-09-08 06:16:00,74.6,60.7,29.94,ENE,68,4.0,4.0,62,0.00,,SCT080,0.00,VWS V14.01,2013-09-08 11:16:00,
2013-09-08 06:18:00,74.6,60.7,29.94,ENE,68,0.0,0.0,62,0.00,,SCT080,0.00,VWS V14.01,2013-09-08 11:18:00,
2013-09-08 06:20:00,74.6,60.7,29.94,NE,45,0.0,2.6,62,0.00,,SCT080,0.00,VWS V14.01,2013-09-08 11:20:00,
2013-09-08 06:22:00,74.4,61.0,29.94,NE,45,8.0,8.0,63,0.00,,SCT080,0.00,VWS V14.01,2013-09-08 11:22:00,
2013-09-08 06:23:00,74.4,61.0,29.94,NE,45,8.0,8.0,63,0.00,,SCT080,0.00,VWS V14.01,2013-09-08 11:23:00,
2013-09-08 06:24:00,74.3,60.9,29.94,ENE,68,2.6,8.0,63,0.00,,SCT080,0.00,VWS V14.01,2013-09-08 11:24:00,
2013-09-08 06:25:00,74.3,60.9,29.94,ENE,68,2.6,2.6,63,0.00,,SCT080,0.00,VWS V14.01,2013-09-08 11:25:00,
2013-09-08 06:28:00,74.3,60.9,29.94,ENE,68,5.2,10.6,63,0.00,,SCT080,0.00,VWS V14.01,2013-09-08 11:28:00,
2013-09-08 06:29:00,74.3,60.9,29.94,ENE,68,1.2,1.2,63,0.00,,SCT080,0.00,VWS V14.01,2013-09-08 11:29:00,
2013-09-08 06:30:00,74.3,60.9,29.95,NE,45,0.0,1.2,63,0.00,,SCT080,0.00,VWS V14.01,2013-09-08 11:30:00,
2013-09-08 06:34:00,74.3,60.9,29.95,ENE,68,3.4,3.4,63,0.00,,SCT080,0.00,VWS V14.01,2013-09-08 11:34:00,
2013-09-08 06:35:00,74.3,60.9,29.95,ENE,68,7.0,7.0,63,0.00,,SCT080,0.00,VWS V14.01,2013-09-08 11:35:00,
2013-09-08 06:36:00,74.3,60.9,29.95,ENE,68,7.6,7.6,63,0.00,,SCT080,0.00,VWS V14.01,2013-09-08 11:36:00,
2013-09-08 06:37:00,74.3,60.9,29.95,ENE,68,7.6,7.6,63,0.00,,SCT080,0.00,VWS V14.01,2013-09-08 11:37:00,
2013-09-08 06:40:00,74.1,61.2,29.95,East,90,0.0,4.8,64,0.00,,CLR,0.00,VWS V14.01,2013-09-08 11:40:00,
2013-09-08 06:41:00,74.1,61.6,29.96,NE,45,0.0,0.0,65,0.00,,CLR,0.00,VWS V14.01,2013-09-08 11:41:00,
2013-09-08 06:42:00,73.9,61.4,29.95,NE,45,4.4,4.4,65,0.00,,CLR,0.00,VWS V14.01,2013-09-08 11:42:00,
2013-09-08 06:45:00,73.7,61.2,29.95,NE,45,0.0,0.0,65,0.00,,CLR,0.00,VWS V14.01,2013-09-08 11:45:00,
2013-09-08 06:47:00,73.7,61.2,29.96,ENE,68,0.0,9.2,65,0.00,,CLR,0.00,VWS V14.01,2013-09-08 11:47:00,
2013-09-08 06:48:00,73.7,61.2,29.96,NE,45,3.4,3.4,65,0.00,,CLR,0.00,VWS V14.01,2013-09-08 11:48:00,
2013-09-08 06:50:00,73.7,61.7,29.95,North,0,0.0,0.0,66,0.00,,CLR,0.00,VWS V14.01,2013-09-08 11:50:00,
2013-09-08 06:52:00,73.5,61.5,29.96,NW,315,4.0,4.0,66,0.00,,CLR,0.00,VWS V14.01,2013-09-08 11:52:00,
2013-09-08 06:54:00,73.5,61.5,29.96,North,0,2.6,4.0,66,0.00,,CLR,0.00,VWS V14.01,2013-09-08 11:54:00,
2013-09-08 06:57:00,73.4,61.8,29.95,ENE,68,6.6,6.6,67,0.00,,CLR,0.00,VWS V14.01,2013-09-08 11:57:00,
2013-09-08 06:58:00,73.4,61.8,29.95,NE,45,0.0,6.6,67,0.00,,CLR,0.00,VWS V14.01,2013-09-08 11:58:00,
2013-09-08 07:00:00,73.0,61.4,29.96,NE,45,0.0,4.8,67,0.00,,CLR,0.00,VWS V14.01,2013-09-08 12:00:00,
2013-09-08 07:02:00,73.0,61.8,29.96,ENE,68,8.4,8.4,68,0.00,,CLR,0.00,VWS V14.01,2013-09-08 12:02:00,
2013-09-08 07:06:00,72.8,61.6,29.96,NE,45,0.0,2.6,68,0.00,,CLR,0.00,VWS V14.01,2013-09-08 12:06:00,
2013-09-08 07:08:00,72.8,62.0,29.96,ENE,68,0.0,12.0,69,0.00,,CLR,0.00,VWS V14.01,2013-09-08 12:08:00,
2013-09-08 07:09:00,72.8,62.0,29.96,ENE,68,0.0,0.0,69,0.00,,CLR,0.00,VWS V14.01,2013-09-08 12:09:00,
2013-09-08 07:10:00,72.8,62.0,29.96,ENE,68,4.4,4.4,69,0.00,,CLR,0.00,VWS V14.01,2013-09-08 12:10:00,
2013-09-08 07:12:00,72.8,62.0,29.96,ENE,68,6.2,6.2,69,0.00,,CLR,0.00,VWS V14.01,2013-09-08 12:12:00,
2013-09-08 07:13:00,72.6,61.9,29.96,ENE,68,0.0,6.2,69,0.00,,CLR,0.00,VWS V14.01,2013-09-08 12:13:00,
2013-09-08 07:14:00,72.8,62.5,29.96,ENE,68,6.6,6.6,70,0.00,,CLR,0.00,VWS V14.01,2013-09-08 12:14:00,
2013-09-08 07:16:00,72.6,62.3,29.96,NE,45,0.0,0.0,70,0.00,,CLR,0.00,VWS V14.01,2013-09-08 12:16:00,
2013-09-08 07:18:00,72.6,62.3,29.96,ENE,68,6.2,6.2,70,0.00,,CLR,0.00,VWS V14.01,2013-09-08 12:18:00,
2013-09-08 07:19:00,72.6,62.3,29.96,ENE,68,0.0,6.2,70,0.00,,CLR,0.00,VWS V14.01,2013-09-08 12:19:00,
2013-09-08 07:20:00,72.6,62.3,29.96,ENE,68,5.8,6.2,70,0.00,,CLR,0.00,VWS V14.01,2013-09-08 12:20:00,
2013-09-08 07:23:00,72.5,62.6,29.97,ENE,68,0.0,0.0,71,0.00,,CLR,0.00,VWS V14.01,2013-09-08 12:23:00,
2013-09-08 07:24:00,72.5,62.6,29.97,ENE,68,1.6,1.6,71,0.00,,CLR,0.00,VWS V14.01,2013-09-08 12:24:00,
2013-09-08 07:25:00,72.5,62.6,29.97,ENE,68,0.0,1.6,71,0.00,,CLR,0.00,VWS V14.01,2013-09-08 12:25:00,
2013-09-08 07:28:00,72.5,63.4,29.97,ENE,68,0.0,0.0,73,0.00,,CLR,0.00,VWS V14.01,2013-09-08 12:28:00,
2013-09-08 07:32:00,72.3,63.2,29.97,ENE,68,0.0,6.2,73,0.00,,CLR,0.00,VWS V14.01,2013-09-08 12:32:00,
2013-09-08 07:33:00,72.3,63.2,29.97,NE,45,0.0,0.0,73,0.00,,CLR,0.00,VWS V14.01,2013-09-08 12:33:00,
2013-09-08 07:34:00,72.3,63.2,29.97,NE,45,5.8,5.8,73,0.00,,CLR,0.00,VWS V14.01,2013-09-08 12:34:00,
2013-09-08 07:38:00,72.3,63.2,29.97,NNE,22,0.0,0.0,73,0.00,,CLR,0.00,VWS V14.01,2013-09-08 12:38:00,
2013-09-08 07:39:00,72.3,63.2,29.97,East,90,0.0,0.0,73,0.00,,CLR,0.00,VWS V14.01,2013-09-08 12:39:00,
2013-09-08 07:40:00,72.3,63.2,29.97,NE,45,0.0,0.0,73,0.00,,CLR,0.00,VWS V14.01,2013-09-08 12:40:00,
2013-09-08 07:42:00,72.3,63.6,29.98,ENE,68,0.0,0.0,74,0.00,,CLR,0.00,VWS V14.01,2013-09-08 12:42:00,
2013-09-08 07:45:00,72.3,63.6,29.97,ENE,68,14.2,14.2,74,0.00,,CLR,0.00,VWS V14.01,2013-09-08 12:45:00,
2013-09-08 07:46:00,72.3,63.6,29.97,NE,45,6.2,14.2,74,0.00,,CLR,0.00,VWS V14.01,2013-09-08 12:46:00,
2013-09-08 07:47:00,72.3,63.6,29.97,NE,45,6.2,6.2,74,0.00,,CLR,0.00,VWS V14.01,2013-09-08 12:47:00,
2013-09-08 07:48:00,72.1,63.4,29.97,ENE,68,6.2,6.2,74,0.00,,CLR,0.00,VWS V14.01,2013-09-08 12:48:00,
2013-09-08 07:50:00,72.3,63.6,29.97,NE,45,0.0,6.2,74,0.00,,CLR,0.00,VWS V14.01,2013-09-08 12:50:00,
2013-09-08 07:52:00,72.3,63.6,29.98,NE,45,0.0,0.0,74,0.00,,CLR,0.00,VWS V14.01,2013-09-08 12:52:00,
2013-09-08 07:54:00,72.1,63.4,29.98,East,90,0.0,0.0,74,0.00,,CLR,0.00,VWS V14.01,2013-09-08 12:54:00,
2013-09-08 07:56:00,71.9,63.2,29.98,NE,45,3.4,6.6,74,0.00,,CLR,0.00,VWS V14.01,2013-09-08 12:56:00,
2013-09-08 07:57:00,71.9,63.2,29.98,ENE,68,2.2,2.2,74,0.00,,CLR,0.00,VWS V14.01,2013-09-08 12:57:00,
2013-09-08 07:58:00,71.9,63.2,29.98,SE,135,0.0,2.2,74,0.00,,CLR,0.00,VWS V14.01,2013-09-08 12:58:00,
2013-09-08 08:00:00,71.9,63.2,29.97,NNE,22,0.0,0.0,74,0.00,,CLR,0.00,VWS V14.01,2013-09-08 13:00:00,
2013-09-08 08:02:00,71.9,63.2,29.97,NNE,22,0.0,0.0,74,0.00,,CLR,0.00,VWS V14.01,2013-09-08 13:02:00,
2013-09-08 08:03:00,72.1,63.8,29.98,NE,45,5.8,5.8,75,0.00,,CLR,0.00,VWS V14.01,2013-09-08 13:03:00,
2013-09-08 08:04:00,71.9,63.5,29.97,ENE,68,4.8,5.8,75,0.00,,CLR,0.00,VWS V14.01,2013-09-08 13:04:00,
2013-09-08 08:06:00,72.1,63.8,29.98,NE,45,0.0,0.0,75,0.00,,CLR,0.00,VWS V14.01,2013-09-08 13:06:00,
2013-09-08 08:08:00,72.1,63.8,29.98,NE,45,10.2,10.2,75,0.00,,CLR,0.00,VWS V14.01,2013-09-08 13:08:00,
2013-09-08 08:09:00,72.1,63.8,29.98,NE,45,10.2,10.2,75,0.00,,CLR,0.00,VWS V14.01,2013-09-08 13:09:00,
2013-09-08 08:10:00,71.9,63.5,29.98,NE,45,14.2,14.2,75,0.00,,CLR,0.00,VWS V14.01,2013-09-08 13:10:00,
2013-09-08 08:12:00,71.9,63.5,29.98,ENE,68,3.4,4.0,75,0.00,,CLR,0.00,VWS V14.01,2013-09-08 13:12:00,
2013-09-08 08:14:00,71.9,63.5,29.98,ENE,68,0.0,3.4,75,0.00,,CLR,0.00,VWS V14.01,2013-09-08 13:14:00,
2013-09-08 08:16:00,71.9,63.5,29.98,East,90,4.8,4.8,75,0.00,,CLR,0.00,VWS V14.01,2013-09-08 13:16:00,
2013-09-08 08:18:00,71.9,63.5,29.98,ENE,68,2.6,4.4,75,0.00,,CLR,0.00,VWS V14.01,2013-09-08 13:18:00,
2013-09-08 08:19:00,71.9,63.5,29.98,ENE,68,2.6,2.6,75,0.00,,CLR,0.00,VWS V14.01,2013-09-08 13:19:00,
2013-09-08 08:20:00,71.9,63.5,29.98,ENE,68,6.2,6.2,75,0.00,,CLR,0.00,VWS V14.01,2013-09-08 13:20:00,
2013-09-08 08:21:00,72.1,63.8,29.98,East,90,0.0,0.0,75,0.00,,CLR,0.00,VWS V14.01,2013-09-08 13:21:00,
2013-09-08 08:22:00,71.9,63.5,29.98,ENE,68,0.0,0.0,75,0.00,,CLR,0.00,VWS V14.01,2013-09-08 13:22:00,
2013-09-08 08:24:00,71.9,63.5,29.98,ESE,112,0.0,8.0,75,0.00,,CLR,0.00,VWS V14.01,2013-09-08 13:24:00,
2013-09-08 08:26:00,72.1,63.8,29.98,East,90,5.8,9.2,75,0.00,,CLR,0.00,VWS V14.01,2013-09-08 13:26:00,
2013-09-08 08:28:00,72.1,63.8,29.98,ENE,68,15.6,15.6,75,0.00,,CLR,0.00,VWS V14.01,2013-09-08 13:28:00,
2013-09-08 08:30:00,72.3,63.9,29.98,North,0,0.0,1.6,75,0.00,,CLR,0.00,VWS V14.01,2013-09-08 13:30:00,
2013-09-08 08:32:00,72.3,63.9,29.98,ENE,68,0.0,0.0,75,0.00,,CLR,0.00,VWS V14.01,2013-09-08 13:32:00,
2013-09-08 08:35:00,72.5,64.1,29.98,NE,45,2.6,2.6,75,0.00,,CLR,0.00,VWS V14.01,2013-09-08 13:35:00,
2013-09-08 08:38:00,72.5,63.4,29.98,ENE,68,0.0,0.0,73,0.00,,CLR,0.00,VWS V14.01,2013-09-08 13:38:00,
2013-09-08 08:39:00,72.5,63.4,29.99,ENE,68,0.0,0.0,73,0.00,,CLR,0.00,VWS V14.01,2013-09-08 13:39:00,
2013-09-08 08:40:00,72.5,63.4,29.98,ENE,68,9.2,9.2,73,0.00,,OVC080,0.00,VWS V14.01,2013-09-08 13:40:00,
2013-09-08 08:42:00,72.5,63.4,29.98,NE,45,5.2,9.2,73,0.00,,OVC080,0.00,VWS V14.01,2013-09-08 13:42:00,
2013-09-08 08:44:00,72.3,63.6,29.99,ESE,112,0.0,5.2,74,0.00,,OVC080,0.00,VWS V14.01,2013-09-08 13:44:00,
2013-09-08 08:47:00,72.3,63.2,29.98,NE,45,5.2,5.2,73,0.00,,OVC080,0.00,VWS V14.01,2013-09-08 13:47:00,
2013-09-08 08:48:00,72.5,64.1,29.98,East,90,0.0,0.0,75,0.00,,OVC080,0.00,VWS V14.01,2013-09-08 13:48:00,
2013-09-08 08:49:00,72.5,63.4,29.98,SSE,158,0.0,0.0,73,0.00,,OVC080,0.00,VWS V14.01,2013-09-08 13:49:00,
2013-09-08 08:50:00,72.5,63.4,29.98,ENE,68,0.0,0.0,73,0.00,,OVC080,0.00,VWS V14.01,2013-09-08 13:50:00,
2013-09-08 08:54:00,72.5,63.4,29.99,ENE,68,0.0,5.2,73,0.00,,OVC080,0.00,VWS V14.01,2013-09-08 13:54:00,
2013-09-08 08:55:00,72.5,63.4,29.98,ENE,68,3.4,3.4,73,0.00,,OVC080,0.00,VWS V14.01,2013-09-08 13:55:00,
2013-09-08 08:56:00,72.5,63.4,29.99,ENE,68,3.4,3.4,73,0.00,,OVC080,0.00,VWS V14.01,2013-09-08 13:56:00,
2013-09-08 09:01:00,72.5,63.4,29.98,ENE,68,0.0,0.0,73,0.00,,OVC080,0.00,VWS V14.01,2013-09-08 14:01:00,
2013-09-08 09:02:00,72.6,63.5,29.98,NE,45,0.0,0.0,73,0.00,,OVC080,0.00,VWS V14.01,2013-09-08 14:02:00,
2013-09-08 09:04:00,72.5,63.4,29.98,SE,135,0.0,0.0,73,0.00,,OVC080,0.00,VWS V14.01,2013-09-08 14:04:00,
2013-09-08 09:06:00,72.5,63.4,29.99,ENE,68,0.0,0.0,73,0.00,,OVC080,0.00,VWS V14.01,2013-09-08 14:06:00,
2013-09-08 09:07:00,72.5,63.4,29.99,NE,45,0.0,0.0,73,0.00,,OVC080,0.00,VWS V14.01,2013-09-08 14:07:00,
2013-09-08 09:10:00,72.6,63.5,29.99,ENE,68,0.0,0.0,73,0.00,,OVC080,0.00,VWS V14.01,2013-09-08 14:10:00,
2013-09-08 09:11:00,72.8,63.7,29.98,East,90,0.0,0.0,73,0.00,,OVC080,0.00,VWS V14.01,2013-09-08 14:11:00,
2013-09-08 09:14:00,73.0,63.8,29.99,ENE,68,0.0,0.0,73,0.00,,OVC080,0.00,VWS V14.01,2013-09-08 14:14:00,
2013-09-08 09:16:00,73.2,64.0,29.99,ENE,68,3.0,3.0,73,0.00,,OVC080,0.00,VWS V14.01,2013-09-08 14:16:00,
2013-09-08 09:18:00,73.0,63.5,29.99,NNE,22,8.8,8.8,72,0.00,,OVC080,0.00,VWS V14.01,2013-09-08 14:18:00,
2013-09-08 09:19:00,73.0,63.5,29.99,South,180,0.0,8.8,72,0.00,,OVC080,0.00,VWS V14.01,2013-09-08 14:19:00,
2013-09-08 09:20:00,73.2,63.6,29.99,ENE,68,0.0,0.0,72,0.00,,OVC080,0.00,VWS V14.01,2013-09-08 14:20:00,
2013-09-08 09:21:00,73.0,63.5,29.99,East,90,0.0,0.0,72,0.00,,OVC080,0.00,VWS V14.01,2013-09-08 14:21:00,
2013-09-08 09:23:00,73.2,63.2,29.99,East,90,0.0,4.4,71,0.00,,OVC080,0.00,VWS V14.01,2013-09-08 14:23:00,
2013-09-08 09:26:00,73.0,63.0,29.99,NE,45,2.6,2.6,71,0.00,,OVC080,0.00,VWS V14.01,2013-09-08 14:26:00,
2013-09-08 09:27:00,73.0,63.0,29.99,ENE,68,0.0,2.6,71,0.00,,OVC080,0.00,VWS V14.01,2013-09-08 14:27:00,
2013-09-08 09:29:00,73.0,63.0,29.99,ENE,68,0.0,3.4,71,0.00,,OVC080,0.00,VWS V14.01,2013-09-08 14:29:00,
2013-09-08 09:30:00,73.0,63.0,29.99,ENE,68,0.0,0.0,71,0.00,,OVC080,0.00,VWS V14.01,2013-09-08 14:30:00,
2013-09-08 09:31:00,73.0,63.0,29.99,NE,45,0.0,0.0,71,0.00,,OVC080,0.00,VWS V14.01,2013-09-08 14:31:00,
2013-09-08 09:33:00,73.0,63.0,29.99,ENE,68,8.8,8.8,71,0.00,,OVC080,0.00,VWS V14.01,2013-09-08 14:33:00,
2013-09-08 09:34:00,73.0,63.0,29.99,ESE,112,0.0,0.0,71,0.00,,OVC080,0.00,VWS V14.01,2013-09-08 14:34:00,
2013-09-08 09:36:00,73.2,63.2,29.99,SE,135,0.0,0.0,71,0.00,,OVC080,0.00,VWS V14.01,2013-09-08 14:36:00,
2013-09-08 09:37:00,73.2,63.2,29.98,ENE,68,0.0,0.0,71,0.00,,OVC080,0.00,VWS V14.01,2013-09-08 14:37:00,
2013-09-08 09:39:00,73.2,63.2,29.98,North,0,8.8,8.8,71,0.00,,OVC080,0.00,VWS V14.01,2013-09-08 14:39:00,
2013-09-08 09:40:00,73.4,63.4,29.99,NE,45,0.0,8.8,71,0.00,,,0.00,VWS V14.01,2013-09-08 14:40:00,
2013-09-08 09:41:00,73.5,63.5,29.99,NE,45,0.0,0.0,71,0.00,,,0.00,VWS V14.01,2013-09-08 14:41:00,
2013-09-08 09:44:00,73.7,63.7,29.98,SE,135,4.0,4.0,71,0.00,,,0.00,VWS V14.01,2013-09-08 14:44:00,
2013-09-08 09:47:00,73.7,63.3,29.98,ENE,68,3.4,3.4,70,0.00,,,0.00,VWS V14.01,2013-09-08 14:47:00,
2013-09-08 09:48:00,73.7,63.3,29.99,East,90,0.0,3.4,70,0.00,,,0.00,VWS V14.01,2013-09-08 14:48:00,
2013-09-08 09:49:00,73.7,63.3,29.99,ENE,68,0.0,0.0,70,0.00,,,0.00,VWS V14.01,2013-09-08 14:49:00,
2013-09-08 09:52:00,73.9,63.5,29.98,ENE,68,0.0,0.0,70,0.00,,,0.00,VWS V14.01,2013-09-08 14:52:00,
2013-09-08 09:54:00,74.1,63.7,29.99,SSE,158,5.2,5.2,70,0.00,,,0.00,VWS V14.01,2013-09-08 14:54:00,
2013-09-08 09:55:00,74.1,63.7,29.98,SSE,158,0.0,0.0,70,0.00,,,0.00,VWS V14.01,2013-09-08 14:55:00,
2013-09-08 09:57:00,74.3,63.5,29.99,ENE,68,0.0,0.0,69,0.00,,,0.00,VWS V14.01,2013-09-08 14:57:00,
2013-09-08 09:59:00,74.3,63.5,29.99,ENE,68,2.6,2.6,69,0.00,,,0.00,VWS V14.01,2013-09-08 14:59:00,
2013-09-08 10:00:00,74.4,63.2,29.99,NE,45,0.0,2.6,68,0.00,,,0.00,VWS V14.01,2013-09-08 15:00:00,
2013-09-08 10:04:00,74.4,63.2,29.99,ENE,68,0.0,5.2,68,0.00,,,0.00,VWS V14.01,2013-09-08 15:04:00,
2013-09-08 10:05:00,74.6,63.3,29.99,SSE,158,0.0,0.0,68,0.00,,,0.00,VWS V14.01,2013-09-08 15:05:00,
2013-09-08 10:06:00,74.6,63.3,29.99,ENE,68,0.0,0.0,68,0.00,,,0.00,VWS V14.01,2013-09-08 15:06:00,
2013-09-08 10:07:00,74.6,63.3,29.99,ENE,68,0.0,0.0,68,0.00,,,0.00,VWS V14.01,2013-09-08 15:07:00,
2013-09-08 10:09:00,74.8,63.1,29.99,East,90,0.0,0.0,67,0.00,,,0.00,VWS V14.01,2013-09-08 15:09:00,
2013-09-08 10:10:00,74.8,63.1,29.99,East,90,6.2,6.2,67,0.00,,,0.00,VWS V14.01,2013-09-08 15:10:00,
2013-09-08 10:12:00,74.8,63.1,29.99,ENE,68,0.0,13.8,67,0.00,,,0.00,VWS V14.01,2013-09-08 15:12:00,
2013-09-08 10:15:00,74.8,62.7,29.99,ENE,68,0.0,0.0,66,0.00,,,0.00,VWS V14.01,2013-09-08 15:15:00,
2013-09-08 10:18:00,75.3,63.6,29.99,ENE,68,0.0,0.0,67,0.00,,,0.00,VWS V14.01,2013-09-08 15:18:00,
2013-09-08 10:19:00,75.3,63.6,29.99,ENE,68,0.0,0.0,67,0.00,,,0.00,VWS V14.01,2013-09-08 15:19:00,
2013-09-08 10:20:00,75.3,63.6,29.99,ENE,68,0.0,0.0,67,0.00,,,0.00,VWS V14.01,2013-09-08 15:20:00,
2013-09-08 10:22:00,75.5,63.4,29.99,ENE,68,0.0,7.6,66,0.00,,,0.00,VWS V14.01,2013-09-08 15:22:00,
2013-09-08 10:24:00,75.5,63.4,29.99,ESE,112,0.0,0.0,66,0.00,,,0.00,VWS V14.01,2013-09-08 15:24:00,
2013-09-08 10:27:00,75.7,63.1,29.99,NE,45,0.0,0.0,65,0.00,,,0.00,VWS V14.01,2013-09-08 15:27:00,
2013-09-08 10:28:00,75.7,63.1,29.99,NE,45,0.0,0.0,65,0.00,,,0.00,VWS V14.01,2013-09-08 15:28:00,
2013-09-08 10:32:00,76.1,63.5,29.99,NE,45,0.0,2.6,65,0.00,,,0.00,VWS V14.01,2013-09-08 15:32:00,
2013-09-08 10:33:00,76.1,63.5,29.99,NE,45,0.0,0.0,65,0.00,,,0.00,VWS V14.01,2013-09-08 15:33:00,
2013-09-08 10:34:00,76.1,63.0,29.99,NE,45,0.0,0.0,64,0.00,,,0.00,VWS V14.01,2013-09-08 15:34:00,
2013-09-08 10:35:00,76.2,63.1,29.99,ENE,68,10.2,10.2,64,0.00,,,0.00,VWS V14.01,2013-09-08 15:35:00,
2013-09-08 10:36:00,76.4,62.9,29.99,SSE,158,0.0,10.2,63,0.00,,,0.00,VWS V14.01,2013-09-08 15:36:00,
2013-09-08 10:38:00,76.6,63.1,29.99,SSE,158,0.0,3.0,63,0.00,,,0.00,VWS V14.01,2013-09-08 15:38:00,
2013-09-08 10:39:00,76.6,63.1,29.99,SSE,158,0.0,0.0,63,0.00,,,0.00,VWS V14.01,2013-09-08 15:39:00,
2013-09-08 10:40:00,76.6,63.1,29.99,SE,135,0.0,0.0,63,0.00,,FEW016,0.00,VWS V14.01,2013-09-08 15:40:00,
2013-09-08 10:44:00,77.3,63.3,29.99,SSE,158,0.0,0.0,62,0.00,,FEW016,0.00,VWS V14.01,2013-09-08 15:44:00,
2013-09-08 10:47:00,77.7,63.2,29.99,ENE,68,0.0,2.2,61,0.00,,FEW016,0.00,VWS V14.01,2013-09-08 15:47:00,
2013-09-08 10:49:00,77.7,63.2,29.99,East,90,3.0,3.0,61,0.00,,FEW016,0.00,VWS V14.01,2013-09-08 15:49:00,
2013-09-08 10:50:00,77.7,63.2,29.99,SSE,158,0.0,3.0,61,0.00,,FEW016,0.00,VWS V14.01,2013-09-08 15:50:00,
2013-09-08 10:52:00,77.9,62.4,29.99,ESE,112,0.0,0.0,59,0.00,,FEW016,0.00,VWS V14.01,2013-09-08 15:52:00,
2013-09-08 10:54:00,77.7,62.7,29.99,North,0,0.0,0.0,60,0.00,,FEW016,0.00,VWS V14.01,2013-09-08 15:54:00,
2013-09-08 10:58:00,78.0,62.5,29.99,ENE,68,0.0,3.4,59,0.00,,FEW016,0.00,VWS V14.01,2013-09-08 15:58:00,
2013-09-08 10:59:00,78.2,62.7,29.99,ENE,68,8.8,8.8,59,0.00,,FEW016,0.00,VWS V14.01,2013-09-08 15:59:00,
2013-09-08 11:00:00,78.2,62.7,29.99,ENE,68,4.0,8.8,59,0.00,,FEW016,0.00,VWS V14.01,2013-09-08 16:00:00,
2013-09-08 11:02:00,78.4,62.9,29.99,ENE,68,3.4,7.0,59,0.00,,FEW016,0.00,VWS V14.01,2013-09-08 16:02:00,
2013-09-08 11:04:00,78.6,63.1,29.99,NE,45,0.0,3.4,59,0.00,,FEW016,0.00,VWS V14.01,2013-09-08 16:04:00,
2013-09-08 11:06:00,78.8,63.3,29.99,ENE,68,6.2,6.2,59,0.00,,FEW016,0.00,VWS V14.01,2013-09-08 16:06:00,
2013-09-08 11:07:00,78.9,62.9,29.99,ENE,68,0.0,6.2,58,0.00,,FEW016,0.00,VWS V14.01,2013-09-08 16:07:00,
2013-09-08 11:08:00,78.9,62.9,29.99,ENE,68,0.0,6.2,58,0.00,,FEW016,0.00,VWS V14.01,2013-09-08 16:08:00,
2013-09-08 11:09:00,79.1,63.1,29.99,South,180,0.0,0.0,58,0.00,,FEW016,0.00,VWS V14.01,2013-09-08 16:09:00,
2013-09-08 11:11:00,79.3,63.3,29.99,South,180,0.0,3.4,58,0.00,,FEW016,0.00,VWS V14.01,2013-09-08 16:11:00,
2013-09-08 11:12:00,79.5,63.4,29.99,SSE,158,0.0,0.0,58,0.00,,FEW016,0.00,VWS V14.01,2013-09-08 16:12:00,
2013-09-08 11:13:00,79.5,63.0,29.99,ENE,68,13.4,13.4,57,0.00,,FEW016,0.00,VWS V14.01,2013-09-08 16:13:00,
2013-09-08 11:18:00,79.5,62.5,29.99,NE,45,5.2,5.2,56,0.00,,FEW016,0.00,VWS V14.01,2013-09-08 16:18:00,
2013-09-08 11:19:00,79.5,61.9,29.98,East,90,0.0,5.2,55,0.00,,FEW016,0.00,VWS V14.01,2013-09-08 16:19:00,
2013-09-08 11:20:00,79.7,62.1,29.98,ENE,68,0.0,5.2,55,0.00,,FEW016,0.00,VWS V14.01,2013-09-08 16:20:00,
2013-09-08 11:21:00,79.7,62.1,29.98,ENE,68,4.0,4.0,55,0.00,,FEW016,0.00,VWS V14.01,2013-09-08 16:21:00,
2013-09-08 11:24:00,79.8,62.2,29.98,SE,135,0.0,2.6,55,0.00,,FEW016,0.00,VWS V14.01,2013-09-08 16:24:00,
2013-09-08 11:25:00,80.0,62.4,29.98,NE,45,0.0,0.0,55,0.00,,FEW016,0.00,VWS V14.01,2013-09-08 16:25:00,
2013-09-08 11:28:00,80.2,62.6,29.98,SE,135,0.0,0.0,55,0.00,,FEW016,0.00,VWS V14.01,2013-09-08 16:28:00,
2013-09-08 11:30:00,80.2,62.1,29.99,East,90,0.0,0.0,54,0.00,,FEW016,0.00,VWS V14.01,2013-09-08 16:30:00,
2013-09-08 11:31:00,80.6,63.0,29.99,East,90,0.0,0.0,55,0.00,,FEW016,0.00,VWS V14.01,2013-09-08 16:31:00,
2013-09-08 11:33:00,80.7,62.5,29.99,North,0,0.0,0.0,54,0.00,,FEW016,0.00,VWS V14.01,2013-09-08 16:33:00,
2013-09-08 11:36:00,80.9,62.2,29.99,ENE,68,0.0,4.4,53,0.00,,FEW016,0.00,VWS V14.01,2013-09-08 16:36:00,
2013-09-08 11:38:00,80.9,62.2,29.99,NE,45,14.2,14.2,53,0.00,,FEW016,0.00,VWS V14.01,2013-09-08 16:38:00,
2013-09-08 11:39:00,80.9,62.2,29.99,NE,45,14.2,14.2,53,0.00,,FEW016,0.00,VWS V14.01,2013-09-08 16:39:00,
2013-09-08 11:41:00,80.7,62.0,29.99,South,180,0.0,0.0,53,0.00,,SCT020,0.00,VWS V14.01,2013-09-08 16:41:00,
2013-09-08 11:42:00,80.6,61.9,29.99,ENE,68,10.2,10.2,53,0.00,,SCT020,0.00,VWS V14.01,2013-09-08 16:42:00,
2013-09-08 11:44:00,80.2,61.5,29.99,NE,45,1.6,10.2,53,0.00,,SCT020,0.00,VWS V14.01,2013-09-08 16:44:00,
2013-09-08 11:46:00,80.4,61.7,29.99,ENE,68,0.8,0.8,53,0.00,,SCT020,0.00,VWS V14.01,2013-09-08 16:46:00,
2013-09-08 11:48:00,80.4,61.7,29.99,NE,45,6.2,6.2,53,0.00,,SCT020,0.00,VWS V14.01,2013-09-08 16:48:00,
2013-09-08 11:49:00,80.6,61.9,29.99,ENE,68,6.2,6.2,53,0.00,,SCT020,0.00,VWS V14.01,2013-09-08 16:49:00,
2013-09-08 11:50:00,80.7,62.5,29.99,NE,45,3.0,6.2,54,0.00,,SCT020,0.00,VWS V14.01,2013-09-08 16:50:00,
2013-09-08 11:52:00,80.7,62.5,29.99,NNE,22,2.2,3.0,54,0.00,,SCT020,0.00,VWS V14.01,2013-09-08 16:52:00,
2013-09-08 11:53:00,81.1,62.4,29.99,NE,45,3.0,3.0,53,0.00,,SCT020,0.00,VWS V14.01,2013-09-08 16:53:00,
2013-09-08 11:56:00,81.3,62.0,29.98,NE,45,0.0,5.8,52,0.00,,SCT020,0.00,VWS V14.01,2013-09-08 16:56:00,
2013-09-08 11:57:00,81.3,62.0,29.98,NE,45,0.0,0.0,52,0.00,,SCT020,0.00,VWS V14.01,2013-09-08 16:57:00,
2013-09-08 12:02:00,81.3,62.0,29.98,ENE,68,8.0,8.0,52,0.00,,SCT020,0.00,VWS V14.01,2013-09-08 17:02:00,
2013-09-08 12:05:00,81.3,62.0,29.98,NE,45,0.0,0.0,52,0.00,,SCT020,0.00,VWS V14.01,2013-09-08 17:05:00,
2013-09-08 12:06:00,81.3,62.0,29.98,North,0,0.0,0.0,52,0.00,,SCT020,0.00,VWS V14.01,2013-09-08 17:06:00,
2013-09-08 12:08:00,81.6,62.3,29.98,ENE,68,0.0,4.8,52,0.00,,SCT020,0.00,VWS V14.01,2013-09-08 17:08:00,
2013-09-08 12:09:00,81.6,62.3,29.98,ENE,68,0.0,0.0,52,0.00,,SCT020,0.00,VWS V14.01,2013-09-08 17:09:00,
2013-09-08 12:11:00,81.8,61.9,29.98,ENE,68,0.0,0.0,51,0.00,,SCT020,0.00,VWS V14.01,2013-09-08 17:11:00,
2013-09-08 12:13:00,82.0,62.1,29.98,ENE,68,3.4,3.4,51,0.00,,SCT020,0.00,VWS V14.01,2013-09-08 17:13:00,
2013-09-08 12:14:00,82.2,62.3,29.98,ENE,68,11.0,11.0,51,0.00,,SCT020,0.00,VWS V14.01,2013-09-08 17:14:00,
2013-09-08 12:16:00,82.2,61.7,29.98,NE,45,0.0,0.0,50,0.00,,SCT020,0.00,VWS V14.01,2013-09-08 17:16:00,
2013-09-08 12:17:00,82.4,61.9,29.98,North,0,0.0,0.0,50,0.00,,SCT020,0.00,VWS V14.01,2013-09-08 17:17:00,
2013-09-08 12:18:00,82.5,62.0,29.98,SE,135,0.0,0.0,50,0.00,,SCT020,0.00,VWS V14.01,2013-09-08 17:18:00,
2013-09-08 12:19:00,82.5,62.0,29.98,NE,45,0.0,0.0,50,0.00,,SCT020,0.00,VWS V14.01,2013-09-08 17:19:00,
2013-09-08 12:21:00,82.7,62.2,29.97,NE,45,0.0,0.0,50,0.00,,SCT020,0.00,VWS V14.01,2013-09-08 17:21:00,
2013-09-08 12:24:00,82.7,61.6,29.97,ENE,68,0.0,13.4,49,0.00,,SCT020,0.00,VWS V14.01,2013-09-08 17:24:00,
2013-09-08 12:26:00,82.7,61.6,29.97,SE,135,8.0,8.0,49,0.00,,SCT020,0.00,VWS V14.01,2013-09-08 17:26:00,
2013-09-08 12:27:00,82.9,61.8,29.97,NNW,338,0.0,8.0,49,0.00,,SCT020,0.00,VWS V14.01,2013-09-08 17:27:00,
2013-09-08 12:29:00,82.9,61.8,29.97,ENE,68,0.0,0.0,49,0.00,,SCT020,0.00,VWS V14.01,2013-09-08 17:29:00,
2013-09-08 12:31:00,83.1,62.0,29.97,ENE,68,0.0,0.0,49,0.00,,SCT020,0.00,VWS V14.01,2013-09-08 17:31:00,
2013-09-08 12:32:00,83.3,61.6,29.97,ENE,68,4.0,4.0,48,0.00,,SCT020,0.00,VWS V14.01,2013-09-08 17:32:00,
2013-09-08 12:34:00,83.3,61.6,29.97,SE,135,1.2,4.0,48,0.00,,SCT020,0.00,VWS V14.01,2013-09-08 17:34:00,
2013-09-08 12:35:00,83.6,61.8,29.97,South,180,0.0,1.2,48,0.00,,SCT020,0.00,VWS V14.01,2013-09-08 17:35:00,
2013-09-08 12:38:00,84.0,62.2,29.97,SE,135,0.0,0.0,48,0.00,,SCT020,0.00,VWS V14.01,2013-09-08 17:38:00,
2013-09-08 12:39:00,84.2,62.4,29.96,ENE,68,3.4,3.4,48,0.00,,SCT020,0.00,VWS V14.01,2013-09-08 17:39:00,
2013-09-08 12:42:00,84.5,62.1,29.96,SE,135,4.0,4.0,47,0.00,,SCT020,0.00,VWS V14.01,2013-09-08 17:42:00,
2013-09-08 12:44:00,84.5,62.1,29.96,ENE,68,1.6,4.0,47,0.00,,SCT020,0.00,VWS V14.01,2013-09-08 17:44:00,
2013-09-08 12:45:00,84.5,62.1,29.96,SW,225,0.0,1.6,47,0.00,,SCT020,0.00,VWS V14.01,2013-09-08 17:45:00,
2013-09-08 12:50:00,85.2,62.1,29.96,SSE,158,0.0,0.0,46,0.00,,FEW024,0.00,VWS V14.01,2013-09-08 17:50:00,
2013-09-08 12:51:00,85.2,61.5,29.96,ENE,68,0.0,0.0,45,0.00,,FEW024,0.00,VWS V14.01,2013-09-08 17:51:00,
2013-09-08 12:52:00,85.4,61.7,29.96,NE,45,2.6,2.6,45,0.00,,FEW024,0.00,VWS V14.01,2013-09-08 17:52:00,
2013-09-08 12:55:00,85.2,61.5,29.96,South,180,0.0,0.0,45,0.00,,FEW024,0.00,VWS V14.01,2013-09-08 17:55:00,
2013-09-08 12:56:00,85.4,61.7,29.96,NNE,22,0.0,0.0,45,0.00,,FEW024,0.00,VWS V14.01,2013-09-08 17:56:00,
2013-09-08 12:57:00,85.4,61.7,29.96,NNE,22,0.0,0.0,45,0.00,,FEW024,0.00,VWS V14.01,2013-09-08 17:57:00,
2013-09-08 12:58:00,85.4,61.7,29.96,East,90,2.6,2.6,45,0.00,,FEW024,0.00,VWS V14.01,2013-09-08 17:58:00,
2013-09-08 13:01:00,85.6,61.8,29.96,NE,45,2.2,2.2,45,0.00,,FEW024,0.00,VWS V14.01,2013-09-08 18:01:00,
2013-09-08 13:02:00,85.4,61.0,29.96,NE,45,0.0,5.2,44,0.00,,FEW024,0.00,VWS V14.01,2013-09-08 18:02:00,
2013-09-08 13:04:00,85.4,61.0,29.96,ENE,68,0.0,0.0,44,0.00,,FEW024,0.00,VWS V14.01,2013-09-08 18:04:00,
2013-09-08 13:06:00,85.4,61.0,29.96,East,90,0.0,3.4,44,0.00,,FEW024,0.00,VWS V14.01,2013-09-08 18:06:00,
2013-09-08 13:07:00,85.4,61.0,29.96,East,90,0.0,0.0,44,0.00,,FEW024,0.00,VWS V14.01,2013-09-08 18:07:00,
2013-09-08 13:10:00,85.4,61.0,29.96,SSE,158,0.0,6.6,44,0.00,,FEW024,0.00,VWS V14.01,2013-09-08 18:10:00,
2013-09-08 13:13:00,85.4,60.4,29.96,ENE,68,0.0,0.0,43,0.00,,FEW024,0.00,VWS V14.01,2013-09-08 18:13:00,
2013-09-08 13:14:00,85.4,60.4,29.96,NNE,22,0.0,0.0,43,0.00,,FEW024,0.00,VWS V14.01,2013-09-08 18:14:00,
2013-09-08 13:15:00,85.2,60.2,29.96,ENE,68,0.0,0.0,43,0.00,,FEW024,0.00,VWS V14.01,2013-09-08 18:15:00,
2013-09-08 13:16:00,85.2,60.2,29.96,ENE,68,5.8,5.8,43,0.00,,FEW024,0.00,VWS V14.01,2013-09-08 18:16:00,
2013-09-08 13:20:00,85.6,61.2,29.96,NNE,22,0.0,2.2,44,0.00,,FEW024,0.00,VWS V14.01,2013-09-08 18:20:00,
2013-09-08 13:21:00,85.6,61.2,29.96,North,0,0.0,0.0,44,0.00,,FEW024,0.00,VWS V14.01,2013-09-08 18:21:00,
2013-09-08 13:22:00,85.6,60.6,29.96,ENE,68,0.0,8.0,43,0.00,,FEW024,0.00,VWS V14.01,2013-09-08 18:22:00,
2013-09-08 13:24:00,85.8,60.7,29.96,NE,45,0.0,0.0,43,0.00,,FEW024,0.00,VWS V14.01,2013-09-08 18:24:00,
2013-09-08 13:26:00,86.0,60.9,29.96,NE,45,0.0,0.0,43,0.00,,FEW024,0.00,VWS V14.01,2013-09-08 18:26:00,
2013-09-08 13:28:00,86.1,61.0,29.96,East,90,0.0,4.8,43,0.00,,FEW024,0.00,VWS V14.01,2013-09-08 18:28:00,
2013-09-08 13:29:00,86.1,61.0,29.96,East,90,0.0,0.0,43,0.00,,FEW024,0.00,VWS V14.01,2013-09-08 18:29:00,
2013-09-08 13:32:00,86.1,61.0,29.96,NE,45,0.0,0.0,43,0.00,,FEW024,0.00,VWS V14.01,2013-09-08 18:32:00,
2013-09-08 13:33:00,86.1,60.3,29.96,ENE,68,5.8,5.8,42,0.00,,FEW024,0.00,VWS V14.01,2013-09-08 18:33:00,
2013-09-08 13:34:00,86.1,60.3,29.96,ENE,68,6.2,6.2,42,0.00,,FEW024,0.00,VWS V14.01,2013-09-08 18:34:00,
2013-09-08 13:38:00,86.0,60.3,29.96,ENE,68,0.0,5.2,42,0.00,,FEW024,0.00,VWS V14.01,2013-09-08 18:38:00,
2013-09-08 13:39:00,85.8,60.1,29.95,ENE,68,0.0,0.0,42,0.00,,FEW024,0.00,VWS V14.01,2013-09-08 18:39:00,
2013-09-08 13:40:00,85.8,60.1,29.96,NE,45,0.0,7.6,42,0.00,,SCT028,0.00,VWS V14.01,2013-09-08 18:40:00,
2013-09-08 13:42:00,85.8,60.1,29.95,ENE,68,2.6,2.6,42,0.00,,SCT028,0.00,VWS V14.01,2013-09-08 18:42:00,
2013-09-08 13:44:00,86.0,60.3,29.95,NE,45,1.6,2.6,42,0.00,,SCT028,0.00,VWS V14.01,2013-09-08 18:44:00,
2013-09-08 13:46:00,86.0,60.3,29.95,ENE,68,0.0,1.6,42,0.00,,SCT028,0.00,VWS V14.01,2013-09-08 18:46:00,
2013-09-08 13:48:00,85.8,60.1,29.95,NE,45,5.8,5.8,42,0.00,,SCT028,0.00,VWS V14.01,2013-09-08 18:48:00,
2013-09-08 13:51:00,85.6,59.9,29.95,ENE,68,3.0,3.0,42,0.00,,SCT028,0.00,VWS V14.01,2013-09-08 18:51:00,
2013-09-08 13:52:00,85.6,59.9,29.95,ENE,68,0.0,3.0,42,0.00,,SCT028,0.00,VWS V14.01,2013-09-08 18:52:00,
2013-09-08 13:54:00,85.6,60.6,29.95,ENE,68,0.0,0.0,43,0.00,,SCT028,0.00,VWS V14.01,2013-09-08 18:54:00,
2013-09-08 13:57:00,86.0,60.9,29.95,NE,45,1.2,1.2,43,0.00,,SCT028,0.00,VWS V14.01,2013-09-08 18:57:00,
2013-09-08 13:58:00,86.0,60.3,29.95,NE,45,6.6,6.6,42,0.00,,SCT028,0.00,VWS V14.01,2013-09-08 18:58:00,
2013-09-08 14:00:00,85.6,59.9,29.95,NE,45,0.0,0.0,42,0.00,,SCT028,0.00,VWS V14.01,2013-09-08 19:00:00,
2013-09-08 14:01:00,85.6,59.9,29.95,NE,45,0.0,0.0,42,0.00,,SCT028,0.00,VWS V14.01,2013-09-08 19:01:00,
2013-09-08 14:02:00,85.8,60.7,29.95,East,90,5.8,5.8,43,0.00,,SCT028,0.00,VWS V14.01,2013-09-08 19:02:00,
2013-09-08 14:04:00,85.8,60.1,29.95,NE,45,1.6,5.8,42,0.00,,SCT028,0.00,VWS V14.01,2013-09-08 19:04:00,
2013-09-08 14:06:00,85.8,60.1,29.95,SE,135,0.0,8.4,42,0.00,,SCT028,0.00,VWS V14.01,2013-09-08 19:06:00,
2013-09-08 14:08:00,86.0,60.3,29.95,ENE,68,4.4,4.4,42,0.00,,SCT028,0.00,VWS V14.01,2013-09-08 19:08:00,
2013-09-08 14:10:00,85.8,60.1,29.94,NE,45,0.0,4.4,42,0.00,,SCT028,0.00,VWS V14.01,2013-09-08 19:10:00,
2013-09-08 14:11:00,85.8,60.1,29.95,SSE,158,4.0,4.0,42,0.00,,SCT028,0.00,VWS V14.01,2013-09-08 19:11:00,
2013-09-08 14:12:00,85.8,60.1,29.94,SSE,158,0.0,4.0,42,0.00,,SCT028,0.00,VWS V14.01,2013-09-08 19:12:00,
2013-09-08 14:14:00,86.1,60.3,29.94,NE,45,0.0,0.0,42,0.00,,SCT028,0.00,VWS V14.01,2013-09-08 19:14:00,
2013-09-08 14:16:00,86.3,60.5,29.94,ESE,112,0.0,0.0,42,0.00,,SCT028,0.00,VWS V14.01,2013-09-08 19:16:00,
2013-09-08 14:18:00,86.3,60.5,29.94,NE,45,7.0,7.0,42,0.00,,SCT028,0.00,VWS V14.01,2013-09-08 19:18:00,
2013-09-08 14:19:00,86.3,59.8,29.94,East,90,0.0,7.0,41,0.00,,SCT028,0.00,VWS V14.01,2013-09-08 19:19:00,
2013-09-08 14:20:00,86.1,59.7,29.94,ENE,68,0.0,7.0,41,0.00,,SCT028,0.00,VWS V14.01,2013-09-08 19:20:00,
2013-09-08 14:21:00,86.3,59.8,29.94,SE,135,0.0,0.0,41,0.00,,SCT028,0.00,VWS V14.01,2013-09-08 19:21:00,
2013-09-08 14:22:00,86.3,59.8,29.94,SE,135,0.4,0.4,41,0.00,,SCT028,0.00,VWS V14.01,2013-09-08 19:22:00,
2013-09-08 14:25:00,86.3,59.8,29.94,NNE,22,0.0,0.0,41,0.00,,SCT028,0.00,VWS V14.01,2013-09-08 19:25:00,
2013-09-08 14:26:00,86.3,59.8,29.94,SSE,158,0.0,0.0,41,0.00,,SCT028,0.00,VWS V14.01,2013-09-08 19:26:00,
2013-09-08 14:28:00,86.3,59.8,29.94,SSE,158,0.0,0.0,41,0.00,,SCT028,0.00,VWS V14.01,2013-09-08 19:28:00,
2013-09-08 14:30:00,86.5,60.0,29.93,ENE,68,5.8,12.4,41,0.00,,SCT028,0.00,VWS V14.01,2013-09-08 19:30:00,
2013-09-08 14:32:00,86.3,60.5,29.94,ENE,68,6.2,6.2,42,0.00,,SCT028,0.00,VWS V14.01,2013-09-08 19:32:00,
2013-09-08 14:34:00,86.1,59.7,29.94,NE,45,4.8,6.2,41,0.00,,SCT028,0.00,VWS V14.01,2013-09-08 19:34:00,
2013-09-08 14:36:00,85.8,60.1,29.93,NE,45,3.4,6.6,42,0.00,,SCT028,0.00,VWS V14.01,2013-09-08 19:36:00,
2013-09-08 14:38:00,85.6,59.9,29.93,East,90,0.0,6.2,42,0.00,,SCT028,0.00,VWS V14.01,2013-09-08 19:38:00,
2013-09-08 14:40:00,85.6,60.6,29.93,NE,45,0.0,0.0,43,0.00,,CLR,0.00,VWS V14.01,2013-09-08 19:40:00,
2013-09-08 14:41:00,85.6,60.6,29.93,ENE,68,7.6,7.6,43,0.00,,CLR,0.00,VWS V14.01,2013-09-08 19:41:00,
2013-09-08 14:42:00,85.6,60.6,29.93,NE,45,0.0,0.0,43,0.00,,CLR,0.00,VWS V14.01,2013-09-08 19:42:00,
2013-09-08 14:44:00,85.6,60.6,29.94,ENE,68,0.0,0.0,43,0.00,,CLR,0.00,VWS V14.01,2013-09-08 19:44:00,
2013-09-08 14:46:00,85.6,60.6,29.93,North,0,0.0,0.0,43,0.00,,CLR,0.00,VWS V14.01,2013-09-08 19:46:00,
2013-09-08 14:48:00,85.4,60.4,29.93,NE,45,0.4,8.0,43,0.00,,CLR,0.00,VWS V14.01,2013-09-08 19:48:00,
2013-09-08 14:49:00,85.4,60.4,29.93,NE,45,2.6,2.6,43,0.00,,CLR,0.00,VWS V14.01,2013-09-08 19:49:00,
2013-09-08 14:50:00,85.4,60.4,29.93,NE,45,0.0,2.6,43,0.00,,CLR,0.00,VWS V14.01,2013-09-08 19:50:00,
2013-09-08 14:53:00,85.1,60.1,29.93,ENE,68,4.8,4.8,43,0.00,,CLR,0.00,VWS V14.01,2013-09-08 19:53:00,
2013-09-08 14:54:00,85.1,60.8,29.93,NE,45,0.0,0.0,44,0.00,,CLR,0.00,VWS V14.01,2013-09-08 19:54:00,
2013-09-08 14:55:00,85.4,61.0,29.93,NE,45,0.0,0.0,44,0.00,,CLR,0.00,VWS V14.01,2013-09-08 19:55:00,
2013-09-08 14:59:00,86.0,62.2,29.93,ENE,68,0.0,0.0,45,0.00,,CLR,0.00,VWS V14.01,2013-09-08 19:59:00,
2013-09-08 15:00:00,86.0,62.2,29.93,ENE,68,1.6,1.6,45,0.00,,CLR,0.00,VWS V14.01,2013-09-08 20:00:00,
2013-09-08 15:05:00,86.0,60.9,29.92,NE,45,4.0,4.0,43,0.00,,CLR,0.00,VWS V14.01,2013-09-08 20:05:00,
2013-09-08 15:06:00,86.0,60.9,29.92,East,90,0.0,4.0,43,0.00,,CLR,0.00,VWS V14.01,2013-09-08 20:06:00,
2013-09-08 15:07:00,85.8,60.7,29.92,ENE,68,0.0,0.0,43,0.00,,CLR,0.00,VWS V14.01,2013-09-08 20:07:00,
2013-09-08 15:10:00,86.1,60.3,29.92,North,0,0.0,0.0,42,0.00,,CLR,0.00,VWS V14.01,2013-09-08 20:10:00,
2013-09-08 15:12:00,86.1,59.7,29.92,ENE,68,0.0,0.0,41,0.00,,CLR,0.00,VWS V14.01,2013-09-08 20:12:00,
2013-09-08 15:14:00,86.1,59.7,29.93,South,180,0.0,0.0,41,0.00,,CLR,0.00,VWS V14.01,2013-09-08 20:14:00,
2013-09-08 15:15:00,86.1,59.7,29.92,SSE,158,4.0,4.0,41,0.00,,CLR,0.00,VWS V14.01,2013-09-08 20:15:00,
2013-09-08 15:18:00,86.1,59.7,29.92,NNE,22,3.0,3.0,41,0.00,,CLR,0.00,VWS V14.01,2013-09-08 20:18:00,
2013-09-08 15:19:00,86.1,59.7,29.92,East,90,0.0,3.0,41,0.00,,CLR,0.00,VWS V14.01,2013-09-08 20:19:00,
2013-09-08 15:20:00,86.1,59.7,29.92,South,180,0.0,0.0,41,0.00,,CLR,0.00,VWS V14.01,2013-09-08 20:20:00,
2013-09-08 15:23:00,86.1,59.7,29.92,SE,135,0.0,0.0,41,0.00,,CLR,0.00,VWS V14.01,2013-09-08 20:23:00,
2013-09-08 15:24:00,86.3,59.8,29.92,NE,45,5.8,5.8,41,0.00,,CLR,0.00,VWS V14.01,2013-09-08 20:24:00,
2013-09-08 15:26:00,86.5,60.0,29.92,NE,45,5.8,5.8,41,0.00,,CLR,0.00,VWS V14.01,2013-09-08 20:26:00,
2013-09-08 15:27:00,86.5,60.0,29.92,NE,45,0.0,0.0,41,0.00,,CLR,0.00,VWS V14.01,2013-09-08 20:27:00,
2013-09-08 15:28:00,86.7,60.2,29.92,ENE,68,7.6,7.6,41,0.00,,CLR,0.00,VWS V14.01,2013-09-08 20:28:00,
2013-09-08 15:30:00,86.7,60.2,29.92,NE,45,0.0,7.6,41,0.00,,CLR,0.00,VWS V14.01,2013-09-08 20:30:00,
2013-09-08 15:32:00,86.3,59.2,29.92,ENE,68,3.0,3.0,40,0.00,,CLR,0.00,VWS V14.01,2013-09-08 20:32:00,
2013-09-08 15:35:00,86.3,59.8,29.91,ENE,68,0.0,0.0,41,0.00,,CLR,0.00,VWS V14.01,2013-09-08 20:35:00,
2013-09-08 15:36:00,86.3,59.8,29.91,ENE,68,0.0,0.0,41,0.00,,CLR,0.00,VWS V14.01,2013-09-08 20:36:00,
2013-09-08 15:38:00,86.3,59.8,29.91,ENE,68,0.0,0.0,41,0.00,,CLR,0.00,VWS V14.01,2013-09-08 20:38:00,
2013-09-08 15:42:00,86.3,60.5,29.91,ENE,68,0.0,1.6,42,0.00,,SCT038,0.00,VWS V14.01,2013-09-08 20:42:00,
2013-09-08 15:44:00,86.3,60.5,29.91,East,90,2.6,2.6,42,0.00,,SCT038,0.00,VWS V14.01,2013-09-08 20:44:00,
2013-09-08 15:46:00,86.3,60.5,29.91,ENE,68,4.0,4.0,42,0.00,,SCT038,0.00,VWS V14.01,2013-09-08 20:46:00,
2013-09-08 15:48:00,86.3,60.5,29.91,ENE,68,0.0,4.0,42,0.00,,SCT038,0.00,VWS V14.01,2013-09-08 20:48:00,
2013-09-08 15:50:00,86.3,60.5,29.90,SE,135,0.0,2.2,42,0.00,,SCT038,0.00,VWS V14.01,2013-09-08 20:50:00,
2013-09-08 15:52:00,86.7,60.9,29.91,NE,45,0.0,2.2,42,0.00,,SCT038,0.00,VWS V14.01,2013-09-08 20:52:00,
2013-09-08 15:54:00,86.5,60.7,29.91,ENE,68,0.0,0.0,42,0.00,,SCT038,0.00,VWS V14.01,2013-09-08 20:54:00,
2013-09-08 15:58:00,86.3,60.5,29.91,ESE,112,0.0,0.0,42,0.00,,SCT038,0.00,VWS V14.01,2013-09-08 20:58:00,
2013-09-08 15:59:00,86.3,60.5,29.92,NE,45,0.0,0.0,42,0.00,,SCT038,0.00,VWS V14.01,2013-09-08 20:59:00,
2013-09-08 16:00:00,86.1,60.3,29.91,ENE,68,5.8,5.8,42,0.00,,SCT038,0.00,VWS V14.01,2013-09-08 21:00:00,
2013-09-08 16:04:00,86.1,60.3,29.91,ENE,68,0.0,4.0,42,0.00,,SCT038,0.00,VWS V14.01,2013-09-08 21:04:00,
2013-09-08 16:06:00,86.1,60.3,29.91,SE,135,0.0,0.0,42,0.00,,SCT038,0.00,VWS V14.01,2013-09-08 21:06:00,
2013-09-08 16:07:00,86.1,60.3,29.91,NE,45,0.0,0.0,42,0.00,,SCT038,0.00,VWS V14.01,2013-09-08 21:07:00,
2013-09-08 16:08:00,86.1,60.3,29.91,East,90,0.0,0.0,42,0.00,,SCT038,0.00,VWS V14.01,2013-09-08 21:08:00,
2013-09-08 16:10:00,86.3,60.5,29.91,ESE,112,0.0,4.8,42,0.00,,SCT038,0.00,VWS V14.01,2013-09-08 21:10:00,
2013-09-08 16:11:00,86.3,60.5,29.91,SE,135,0.0,0.0,42,0.00,,SCT038,0.00,VWS V14.01,2013-09-08 21:11:00,
2013-09-08 16:13:00,86.3,60.5,29.91,ENE,68,4.4,4.4,42,0.00,,SCT038,0.00,VWS V14.01,2013-09-08 21:13:00,
2013-09-08 16:14:00,86.3,60.5,29.91,ENE,68,10.6,10.6,42,0.00,,SCT038,0.00,VWS V14.01,2013-09-08 21:14:00,
2013-09-08 16:16:00,86.3,60.5,29.91,ENE,68,0.0,10.6,42,0.00,,SCT038,0.00,VWS V14.01,2013-09-08 21:16:00,
2013-09-08 16:20:00,86.1,60.3,29.91,ENE,68,0.0,0.0,42,0.00,,SCT038,0.00,VWS V14.01,2013-09-08 21:20:00,
2013-09-08 16:21:00,86.1,60.3,29.91,ENE,68,4.8,4.8,42,0.00,,SCT038,0.00,VWS V14.01,2013-09-08 21:21:00,
2013-09-08 16:22:00,86.1,60.3,29.91,NNE,22,0.0,4.8,42,0.00,,SCT038,0.00,VWS V14.01,2013-09-08 21:22:00,
2013-09-08 16:23:00,86.1,60.3,29.91,ENE,68,0.0,0.0,42,0.00,,SCT038,0.00,VWS V14.01,2013-09-08 21:23:00,
2013-09-08 16:26:00,86.1,61.0,29.91,ENE,68,16.4,16.4,43,0.00,,SCT038,0.00,VWS V14.01,2013-09-08 21:26:00,
2013-09-08 16:27:00,85.6,59.9,29.91,ENE,68,0.0,16.4,42,0.00,,SCT038,0.00,VWS V14.01,2013-09-08 21:27:00,
2013-09-08 16:28:00,85.6,59.9,29.91,ENE,68,0.0,16.4,42,0.00,,SCT038,0.00,VWS V14.01,2013-09-08 21:28:00,
2013-09-08 16:29:00,85.6,60.6,29.91,NNE,22,14.6,14.6,43,0.00,,SCT038,0.00,VWS V14.01,2013-09-08 21:29:00,
2013-09-08 16:32:00,85.6,60.6,29.91,ENE,68,0.0,3.4,43,0.00,,SCT038,0.00,VWS V14.01,2013-09-08 21:32:00,
2013-09-08 16:35:00,85.4,60.4,29.91,ENE,68,0.0,3.4,43,0.00,,SCT038,0.00,VWS V14.01,2013-09-08 21:35:00,
2013-09-08 16:36:00,85.4,60.4,29.91,ENE,68,8.0,8.0,43,0.00,,SCT038,0.00,VWS V14.01,2013-09-08 21:36:00,
2013-09-08 16:38:00,85.4,60.4,29.91,ENE,68,8.0,8.0,43,0.00,,SCT038,0.00,VWS V14.01,2013-09-08 21:38:00,
2013-09-08 16:40:00,85.1,60.8,29.91,ENE,68,2.6,2.6,44,0.00,,FEW040,0.00,VWS V14.01,2013-09-08 21:40:00,
2013-09-08 16:43:00,84.9,61.2,29.91,ENE,68,0.0,0.0,45,0.00,,FEW040,0.00,VWS V14.01,2013-09-08 21:43:00,
2013-09-08 16:44:00,84.9,61.2,29.92,ENE,68,4.0,4.0,45,0.00,,FEW040,0.00,VWS V14.01,2013-09-08 21:44:00,
2013-09-08 16:46:00,85.1,61.4,29.91,ENE,68,0.0,4.0,45,0.00,,FEW040,0.00,VWS V14.01,2013-09-08 21:46:00,
2013-09-08 16:49:00,85.1,60.8,29.91,NE,45,0.0,0.0,44,0.00,,FEW040,0.00,VWS V14.01,2013-09-08 21:49:00,
2013-09-08 16:50:00,85.1,60.8,29.91,South,180,0.0,0.0,44,0.00,,FEW040,0.00,VWS V14.01,2013-09-08 21:50:00,
2013-09-08 16:51:00,85.1,60.8,29.91,ENE,68,5.8,5.8,44,0.00,,FEW040,0.00,VWS V14.01,2013-09-08 21:51:00,
2013-09-08 16:52:00,85.2,60.8,29.91,ENE,68,0.0,5.8,44,0.00,,FEW040,0.00,VWS V14.01,2013-09-08 21:52:00,
2013-09-08 16:53:00,85.1,60.8,29.91,SSE,158,0.0,0.0,44,0.00,,FEW040,0.00,VWS V14.01,2013-09-08 21:53:00,
2013-09-08 16:54:00,85.1,60.8,29.91,ESE,112,0.0,0.0,44,0.00,,FEW040,0.00,VWS V14.01,2013-09-08 21:54:00,
2013-09-08 16:56:00,85.2,60.2,29.91,East,90,0.0,4.0,43,0.00,,FEW040,0.00,VWS V14.01,2013-09-08 21:56:00,
2013-09-08 16:57:00,85.1,60.1,29.91,East,90,0.0,0.0,43,0.00,,FEW040,0.00,VWS V14.01,2013-09-08 21:57:00,
2013-09-08 16:58:00,85.1,60.1,29.91,ESE,112,0.0,0.0,43,0.00,,FEW040,0.00,VWS V14.01,2013-09-08 21:58:00,
2013-09-08 17:00:00,84.9,59.9,29.91,East,90,0.0,0.0,43,0.00,,FEW040,0.00,VWS V14.01,2013-09-08 22:00:00,
2013-09-08 17:02:00,84.9,60.6,29.91,SSE,158,0.0,0.0,44,0.00,,FEW040,0.00,VWS V14.01,2013-09-08 22:02:00,
2013-09-08 17:04:00,84.9,61.2,29.91,South,180,0.0,0.0,45,0.00,,FEW040,0.00,VWS V14.01,2013-09-08 22:04:00,
2013-09-08 17:05:00,84.9,61.2,29.91,NE,45,0.0,0.0,45,0.00,,FEW040,0.00,VWS V14.01,2013-09-08 22:05:00,
2013-09-08 17:06:00,84.9,61.2,29.91,NE,45,0.0,0.0,45,0.00,,FEW040,0.00,VWS V14.01,2013-09-08 22:06:00,
2013-09-08 17:07:00,84.9,61.2,29.90,ENE,68,0.0,0.0,45,0.00,,FEW040,0.00,VWS V14.01,2013-09-08 22:07:00,
2013-09-08 17:10:00,85.1,60.8,29.90,ENE,68,5.2,5.2,44,0.00,,FEW040,0.00,VWS V14.01,2013-09-08 22:10:00,
2013-09-08 17:12:00,84.9,60.6,29.90,ENE,68,0.0,0.0,44,0.00,,FEW040,0.00,VWS V14.01,2013-09-08 22:12:00,
2013-09-08 17:13:00,85.1,60.8,29.90,NE,45,0.0,0.0,44,0.00,,FEW040,0.00,VWS V14.01,2013-09-08 22:13:00,
2013-09-08 17:14:00,85.1,60.8,29.90,SE,135,0.0,0.0,44,0.00,,FEW040,0.00,VWS V14.01,2013-09-08 22:14:00,
2013-09-08 17:16:00,85.1,60.8,29.91,ENE,68,0.0,0.0,44,0.00,,FEW040,0.00,VWS V14.01,2013-09-08 22:16:00,
2013-09-08 17:19:00,85.1,61.4,29.91,ENE,68,0.0,0.0,45,0.00,,FEW040,0.00,VWS V14.01,2013-09-08 22:19:00,
2013-09-08 17:20:00,84.9,61.2,29.91,NE,45,4.4,4.4,45,0.00,,FEW040,0.00,VWS V14.01,2013-09-08 22:20:00,
2013-09-08 17:24:00,84.9,61.8,29.91,South,180,0.0,0.0,46,0.00,,FEW040,0.00,VWS V14.01,2013-09-08 22:24:00,
2013-09-08 17:25:00,84.9,61.2,29.91,SE,135,2.2,2.2,45,0.00,,FEW040,0.00,VWS V14.01,2013-09-08 22:25:00,
2013-09-08 17:26:00,84.7,61.0,29.91,SSW,202,0.0,2.2,45,0.00,,FEW040,0.00,VWS V14.01,2013-09-08 22:26:00,
2013-09-08 17:29:00,84.5,60.8,29.91,SE,135,0.0,0.0,45,0.00,,FEW040,0.00,VWS V14.01,2013-09-08 22:29:00,
2013-09-08 17:30:00,84.5,60.8,29.91,SSE,158,0.0,0.0,45,0.00,,FEW040,0.00,VWS V14.01,2013-09-08 22:30:00,
2013-09-08 17:32:00,84.5,60.8,29.91,ESE,112,0.0,0.0,45,0.00,,FEW040,0.00,VWS V14.01,2013-09-08 22:32:00,
2013-09-08 17:34:00,84.5,60.8,29.91,ENE,68,0.0,0.0,45,0.00,,FEW040,0.00,VWS V14.01,2013-09-08 22:34:00,
2013-09-08 17:35:00,84.5,60.8,29.91,ENE,68,0.0,0.0,45,0.00,,FEW040,0.00,VWS V14.01,2013-09-08 22:35:00,
2013-09-08 17:36:00,84.5,60.8,29.91,NE,45,0.0,0.0,45,0.00,,FEW040,0.00,VWS V14.01,2013-09-08 22:36:00,
2013-09-08 17:39:00,84.9,61.8,29.91,SW,225,0.0,0.0,46,0.00,,FEW040,0.00,VWS V14.01,2013-09-08 22:39:00,
2013-09-08 17:40:00,84.7,61.7,29.91,SSW,202,0.0,0.0,46,0.00,,BKN042,0.00,VWS V14.01,2013-09-08 22:40:00,
2013-09-08 17:41:00,84.7,61.7,29.91,ESE,112,0.0,0.0,46,0.00,,BKN042,0.00,VWS V14.01,2013-09-08 22:41:00,
2013-09-08 17:42:00,84.9,61.8,29.91,ENE,68,6.2,6.2,46,0.00,,BKN042,0.00,VWS V14.01,2013-09-08 22:42:00,
2013-09-08 17:43:00,84.9,61.8,29.91,ENE,68,6.2,6.2,46,0.00,,BKN042,0.00,VWS V14.01,2013-09-08 22:43:00,
2013-09-08 17:44:00,84.9,61.2,29.91,ENE,68,4.0,6.2,45,0.00,,BKN042,0.00,VWS V14.01,2013-09-08 22:44:00,
2013-09-08 17:46:00,84.9,61.2,29.91,SE,135,0.0,5.8,45,0.00,,BKN042,0.00,VWS V14.01,2013-09-08 22:46:00,
2013-09-08 17:50:00,84.9,61.2,29.90,ENE,68,0.0,4.4,45,0.00,,BKN042,0.00,VWS V14.01,2013-09-08 22:50:00,
2013-09-08 17:51:00,84.7,61.0,29.90,ENE,68,0.0,0.0,45,0.00,,BKN042,0.00,VWS V14.01,2013-09-08 22:51:00,
2013-09-08 17:52:00,84.7,61.0,29.90,ENE,68,0.0,0.0,45,0.00,,BKN042,0.00,VWS V14.01,2013-09-08 22:52:00,
2013-09-08 17:54:00,84.9,61.8,29.90,WSW,248,0.0,0.0,46,0.00,,BKN042,0.00,VWS V14.01,2013-09-08 22:54:00,
2013-09-08 17:55:00,84.5,61.5,29.90,ENE,68,0.0,0.0,46,0.00,,BKN042,0.00,VWS V14.01,2013-09-08 22:55:00,
2013-09-08 17:56:00,84.5,61.5,29.90,ENE,68,0.0,0.0,46,0.00,,BKN042,0.00,VWS V14.01,2013-09-08 22:56:00,
2013-09-08 17:58:00,84.7,61.7,29.90,NE,45,0.0,0.0,46,0.00,,BKN042,0.00,VWS V14.01,2013-09-08 22:58:00,
2013-09-08 18:01:00,84.7,61.0,29.90,South,180,0.0,0.0,45,0.00,,BKN042,0.00,VWS V14.01,2013-09-08 23:01:00,
2013-09-08 18:02:00,84.9,61.2,29.90,SSE,158,0.0,0.0,45,0.00,,BKN042,0.00,VWS V14.01,2013-09-08 23:02:00,
2013-09-08 18:04:00,84.9,61.2,29.90,ENE,68,0.0,0.0,45,0.00,,BKN042,0.00,VWS V14.01,2013-09-08 23:04:00,
2013-09-08 18:05:00,84.9,61.2,29.90,SE,135,3.4,3.4,45,0.00,,BKN042,0.00,VWS V14.01,2013-09-08 23:05:00,
2013-09-08 18:06:00,84.7,61.0,29.90,ESE,112,0.0,3.4,45,0.00,,BKN042,0.00,VWS V14.01,2013-09-08 23:06:00,
2013-09-08 18:07:00,84.7,61.0,29.90,East,90,0.0,0.0,45,0.00,,BKN042,0.00,VWS V14.01,2013-09-08 23:07:00,
2013-09-08 18:12:00,84.5,60.8,29.90,SE,135,0.0,0.0,45,0.00,,BKN042,0.00,VWS V14.01,2013-09-08 23:12:00,
2013-09-08 18:13:00,84.3,60.7,29.90,SE,135,0.0,0.0,45,0.00,,BKN042,0.00,VWS V14.01,2013-09-08 23:13:00,
2013-09-08 18:17:00,84.0,61.0,29.90,SSE,158,0.0,0.0,46,0.00,,BKN042,0.00,VWS V14.01,2013-09-08 23:17:00,
2013-09-08 18:20:00,83.8,60.8,29.90,NNE,22,0.0,0.0,46,0.00,,BKN042,0.00,VWS V14.01,2013-09-08 23:20:00,
2013-09-08 18:21:00,83.8,60.8,29.90,NE,45,0.0,0.0,46,0.00,,BKN042,0.00,VWS V14.01,2013-09-08 23:21:00,
2013-09-08 18:22:00,83.6,60.7,29.90,ESE,112,0.0,0.0,46,0.00,,BKN042,0.00,VWS V14.01,2013-09-08 23:22:00,
2013-09-08 18:26:00,83.6,60.7,29.90,ENE,68,0.0,0.0,46,0.00,,BKN042,0.00,VWS V14.01,2013-09-08 23:26:00,
2013-09-08 18:28:00,83.4,61.1,29.90,SE,135,0.0,0.0,47,0.00,,BKN042,0.00,VWS V14.01,2013-09-08 23:28:00,
2013-09-08 18:29:00,83.4,61.1,29.90,SSE,158,0.0,0.0,47,0.00,,BKN042,0.00,VWS V14.01,2013-09-08 23:29:00,
2013-09-08 18:30:00,83.4,61.1,29.90,South,180,0.0,0.0,47,0.00,,BKN042,0.00,VWS V14.01,2013-09-08 23:30:00,
2013-09-08 18:33:00,83.3,61.0,29.90,South,180,0.0,0.0,47,0.00,,BKN042,0.00,VWS V14.01,2013-09-08 23:33:00,
2013-09-08 18:34:00,83.3,61.0,29.90,NW,315,0.0,0.0,47,0.00,,BKN042,0.00,VWS V14.01,2013-09-08 23:34:00,
2013-09-08 18:36:00,83.3,61.0,29.90,NE,45,0.0,0.0,47,0.00,,BKN042,0.00,VWS V14.01,2013-09-08 23:36:00,
2013-09-08 18:40:00,83.3,61.0,29.90,ENE,68,0.0,0.0,47,0.00,,SCT042,0.00,VWS V14.01,2013-09-08 23:40:00,
2013-09-08 18:41:00,83.3,61.0,29.90,ENE,68,0.0,0.0,47,0.00,,SCT042,0.00,VWS V14.01,2013-09-08 23:41:00,
2013-09-08 18:44:00,83.1,61.4,29.90,East,90,0.0,0.0,48,0.00,,SCT042,0.00,VWS V14.01,2013-09-08 23:44:00,
2013-09-08 18:45:00,83.1,61.4,29.90,ENE,68,0.0,0.0,48,0.00,,SCT042,0.00,VWS V14.01,2013-09-08 23:45:00,
2013-09-08 18:46:00,83.1,61.4,29.90,NNE,22,0.0,0.0,48,0.00,,SCT042,0.00,VWS V14.01,2013-09-08 23:46:00,
2013-09-08 18:50:00,83.1,61.4,29.90,NNE,22,0.0,0.0,48,0.00,,SCT042,0.00,VWS V14.01,2013-09-08 23:50:00,
2013-09-08 18:52:00,83.1,62.0,29.90,NNE,22,0.0,0.0,49,0.00,,SCT042,0.00,VWS V14.01,2013-09-08 23:52:00,
2013-09-08 18:53:00,83.1,61.4,29.90,NE,45,0.0,0.0,48,0.00,,SCT042,0.00,VWS V14.01,2013-09-08 23:53:00,
2013-09-08 18:56:00,82.9,61.8,29.90,SE,135,0.0,0.0,49,0.00,,SCT042,0.00,VWS V14.01,2013-09-08 23:56:00,
2013-09-08 18:58:00,82.9,61.8,29.90,ENE,68,0.0,0.0,49,0.00,,SCT042,0.00,VWS V14.01,2013-09-08 23:58:00,
2013-09-08 19:02:00,82.9,61.8,29.90,SE,135,0.0,0.0,49,0.00,,SCT042,0.00,VWS V14.01,2013-09-09 00:02:00,
2013-09-08 19:03:00,82.7,61.6,29.90,SE,135,0.0,0.0,49,0.00,,SCT042,0.00,VWS V14.01,2013-09-09 00:03:00,
2013-09-08 19:04:00,82.9,61.8,29.90,SE,135,0.0,0.0,49,0.00,,SCT042,0.00,VWS V14.01,2013-09-09 00:04:00,
2013-09-08 19:07:00,82.7,61.6,29.90,SSE,158,0.0,0.0,49,0.00,,SCT042,0.00,VWS V14.01,2013-09-09 00:07:00,
2013-09-08 19:08:00,82.7,61.6,29.90,NNW,338,0.0,0.0,49,0.00,,SCT042,0.00,VWS V14.01,2013-09-09 00:08:00,
2013-09-08 19:09:00,82.7,61.6,29.90,NNW,338,0.0,0.0,49,0.00,,SCT042,0.00,VWS V14.01,2013-09-09 00:09:00,
2013-09-08 19:10:00,82.7,62.2,29.90,East,90,0.0,0.0,50,0.00,,BKN044,0.00,VWS V14.01,2013-09-09 00:10:00,
2013-09-08 19:12:00,82.7,62.2,29.90,East,90,0.0,0.0,50,0.00,,BKN044,0.00,VWS V14.01,2013-09-09 00:12:00,
2013-09-08 19:14:00,82.5,62.0,29.90,SE,135,0.0,0.0,50,0.00,,BKN044,0.00,VWS V14.01,2013-09-09 00:14:00,
2013-09-08 19:16:00,82.5,62.0,29.90,SE,135,0.0,0.0,50,0.00,,BKN044,0.00,VWS V14.01,2013-09-09 00:16:00,
2013-09-08 19:18:00,82.5,62.0,29.90,ENE,68,0.0,0.0,50,0.00,,BKN044,0.00,VWS V14.01,2013-09-09 00:18:00,
2013-09-08 19:19:00,82.5,62.0,29.90,SE,135,0.0,0.0,50,0.00,,BKN044,0.00,VWS V14.01,2013-09-09 00:19:00,
2013-09-08 19:22:00,82.5,62.0,29.90,ENE,68,0.0,0.0,50,0.00,,BKN044,0.00,VWS V14.01,2013-09-09 00:22:00,
2013-09-08 19:25:00,82.5,62.6,29.90,ENE,68,0.0,0.0,51,0.00,,BKN044,0.00,VWS V14.01,2013-09-09 00:25:00,
2013-09-08 19:27:00,82.5,62.6,29.90,NE,45,0.0,0.0,51,0.00,,BKN044,0.00,VWS V14.01,2013-09-09 00:27:00,
2013-09-08 19:28:00,82.5,62.6,29.90,NE,45,0.0,0.0,51,0.00,,BKN044,0.00,VWS V14.01,2013-09-09 00:28:00,
2013-09-08 19:29:00,82.4,62.5,29.90,NE,45,1.6,1.6,51,0.00,,BKN044,0.00,VWS V14.01,2013-09-09 00:29:00,
2013-09-08 19:32:00,82.5,62.6,29.90,ENE,68,1.2,1.2,51,0.00,,BKN044,0.00,VWS V14.01,2013-09-09 00:32:00,
2013-09-08 19:34:00,82.4,62.5,29.90,East,90,0.0,6.6,51,0.00,,BKN044,0.00,VWS V14.01,2013-09-09 00:34:00,
2013-09-08 19:35:00,82.4,63.0,29.90,ENE,68,0.0,0.0,52,0.00,,BKN044,0.00,VWS V14.01,2013-09-09 00:35:00,
2013-09-08 19:38:00,82.4,63.0,29.90,NE,45,0.0,0.0,52,0.00,,BKN044,0.00,VWS V14.01,2013-09-09 00:38:00,
2013-09-08 19:40:00,82.2,62.8,29.90,SE,135,0.0,0.0,52,0.00,,BKN044,0.00,VWS V14.01,2013-09-09 00:40:00,
2013-09-08 19:41:00,82.0,62.7,29.90,ESE,112,0.0,0.0,52,0.00,,BKN044,0.00,VWS V14.01,2013-09-09 00:41:00,
2013-09-08 19:42:00,82.2,62.8,29.90,ESE,112,0.0,0.0,52,0.00,,BKN044,0.00,VWS V14.01,2013-09-09 00:42:00,
2013-09-08 19:43:00,82.0,62.7,29.90,ESE,112,0.0,0.0,52,0.00,,BKN044,0.00,VWS V14.01,2013-09-09 00:43:00,
2013-09-08 19:44:00,82.2,62.8,29.90,ESE,112,0.0,0.0,52,0.00,,BKN044,0.00,VWS V14.01,2013-09-09 00:44:00,
2013-09-08 19:46:00,82.0,62.7,29.90,ESE,112,0.0,0.0,52,0.00,,BKN044,0.00,VWS V14.01,2013-09-09 00:46:00,
2013-09-08 19:47:00,82.0,62.7,29.90,East,90,0.0,0.0,52,0.00,,BKN044,0.00,VWS V14.01,2013-09-09 00:47:00,
2013-09-08 19:48:00,82.0,63.2,29.90,SSE,158,0.0,0.0,53,0.00,,BKN044,0.00,VWS V14.01,2013-09-09 00:48:00,
2013-09-08 19:49:00,82.0,63.2,29.90,SSE,158,0.0,0.0,53,0.00,,BKN044,0.00,VWS V14.01,2013-09-09 00:49:00,
2013-09-08 19:50:00,82.0,63.2,29.90,SSE,158,0.0,0.0,53,0.00,,BKN044,0.00,VWS V14.01,2013-09-09 00:50:00,
2013-09-08 19:51:00,82.0,63.2,29.90,East,90,0.0,0.0,53,0.00,,BKN044,0.00,VWS V14.01,2013-09-09 00:51:00,
2013-09-08 19:54:00,82.0,63.2,29.91,ENE,68,0.0,0.0,53,0.00,,BKN044,0.00,VWS V14.01,2013-09-09 00:54:00,
2013-09-08 19:56:00,82.0,63.2,29.90,SE,135,0.0,0.0,53,0.00,,BKN044,0.00,VWS V14.01,2013-09-09 00:56:00,
2013-09-08 19:58:00,82.0,63.2,29.90,SE,135,0.0,0.0,53,0.00,,BKN044,0.00,VWS V14.01,2013-09-09 00:58:00,
2013-09-08 19:59:00,82.0,63.2,29.91,East,90,0.0,0.0,53,0.00,,BKN044,0.00,VWS V14.01,2013-09-09 00:59:00,
2013-09-08 20:02:00,82.0,63.2,29.91,SSE,158,0.0,0.0,53,0.00,,BKN044,0.00,VWS V14.01,2013-09-09 01:02:00,
2013-09-08 20:04:00,82.0,63.2,29.91,South,180,0.0,0.0,53,0.00,,BKN044,0.00,VWS V14.01,2013-09-09 01:04:00,
2013-09-08 20:06:00,82.0,63.2,29.91,ENE,68,0.0,3.4,53,0.00,,BKN044,0.00,VWS V14.01,2013-09-09 01:06:00,
2013-09-08 20:07:00,81.8,63.0,29.91,ESE,112,0.0,0.0,53,0.00,,BKN044,0.00,VWS V14.01,2013-09-09 01:07:00,
2013-09-08 20:08:00,81.8,63.5,29.91,SSE,158,0.0,0.0,54,0.00,,BKN044,0.00,VWS V14.01,2013-09-09 01:08:00,
2013-09-08 20:10:00,81.8,63.5,29.91,South,180,0.0,0.0,54,0.00,,BKN044,0.00,VWS V14.01,2013-09-09 01:10:00,
2013-09-08 20:12:00,81.8,63.5,29.91,SSE,158,0.0,0.0,54,0.00,,BKN044,0.00,VWS V14.01,2013-09-09 01:12:00,
2013-09-08 20:14:00,81.6,63.4,29.91,SSE,158,0.0,0.0,54,0.00,,BKN044,0.00,VWS V14.01,2013-09-09 01:14:00,
2013-09-08 20:16:00,81.8,63.5,29.91,East,90,0.0,0.0,54,0.00,,BKN044,0.00,VWS V14.01,2013-09-09 01:16:00,
2013-09-08 20:19:00,81.8,63.5,29.91,ESE,112,0.0,0.0,54,0.00,,BKN044,0.00,VWS V14.01,2013-09-09 01:19:00,
2013-09-08 20:20:00,81.8,63.5,29.91,SE,135,0.0,0.0,54,0.00,,BKN044,0.00,VWS V14.01,2013-09-09 01:20:00,
2013-09-08 20:22:00,81.8,63.5,29.91,South,180,0.0,0.0,54,0.00,,BKN044,0.00,VWS V14.01,2013-09-09 01:22:00,
2013-09-08 20:24:00,81.6,63.4,29.91,ENE,68,5.8,5.8,54,0.00,,BKN044,0.00,VWS V14.01,2013-09-09 01:24:00,
2013-09-08 20:25:00,81.6,63.4,29.91,ENE,68,0.0,0.0,54,0.00,,BKN044,0.00,VWS V14.01,2013-09-09 01:25:00,
2013-09-08 20:27:00,81.6,63.4,29.91,NNE,22,0.0,0.0,54,0.00,,BKN044,0.00,VWS V14.01,2013-09-09 01:27:00,
2013-09-08 20:28:00,81.6,63.4,29.91,ENE,68,0.0,0.0,54,0.00,,BKN044,0.00,VWS V14.01,2013-09-09 01:28:00,
2013-09-08 20:29:00,81.6,63.4,29.91,ENE,68,0.0,0.0,54,0.00,,BKN044,0.00,VWS V14.01,2013-09-09 01:29:00,
2013-09-08 20:30:00,81.5,63.3,29.91,ENE,68,0.0,0.0,54,0.00,,BKN044,0.00,VWS V14.01,2013-09-09 01:30:00,
2013-09-08 20:33:00,81.5,63.3,29.91,NNE,22,0.0,0.0,54,0.00,,BKN044,0.00,VWS V14.01,2013-09-09 01:33:00,
2013-09-08 20:34:00,81.5,63.3,29.91,ENE,68,0.0,0.0,54,0.00,,BKN044,0.00,VWS V14.01,2013-09-09 01:34:00,
2013-09-08 20:37:00,81.3,63.1,29.91,ENE,68,0.0,0.0,54,0.00,,BKN044,0.00,VWS V14.01,2013-09-09 01:37:00,
2013-09-08 20:38:00,81.3,63.6,29.91,NE,45,0.0,0.0,55,0.00,,BKN044,0.00,VWS V14.01,2013-09-09 01:38:00,
2013-09-08 20:41:00,81.3,63.6,29.91,SSE,158,0.0,0.0,55,0.00,,OVC048,0.00,VWS V14.01,2013-09-09 01:41:00,
2013-09-08 20:42:00,81.3,63.6,29.91,ENE,68,0.0,0.0,55,0.00,,OVC048,0.00,VWS V14.01,2013-09-09 01:42:00,
2013-09-08 20:44:00,81.3,63.6,29.91,ENE,68,7.0,7.0,55,0.00,,OVC048,0.00,VWS V14.01,2013-09-09 01:44:00,
2013-09-08 20:46:00,81.3,63.6,29.91,NE,45,0.0,0.0,55,0.00,,OVC048,0.00,VWS V14.01,2013-09-09 01:46:00,
2013-09-08 20:48:00,81.1,63.4,29.91,ENE,68,1.2,1.2,55,0.00,,OVC048,0.00,VWS V14.01,2013-09-09 01:48:00,
2013-09-08 20:50:00,80.9,63.2,29.91,NE,45,0.0,3.4,55,0.00,,OVC048,0.00,VWS V14.01,2013-09-09 01:50:00,
2013-09-08 20:51:00,80.9,63.2,29.91,NE,45,0.0,0.0,55,0.00,,OVC048,0.00,VWS V14.01,2013-09-09 01:51:00,
2013-09-08 20:52:00,80.9,63.2,29.92,NE,45,0.0,0.0,55,0.00,,OVC048,0.00,VWS V14.01,2013-09-09 01:52:00,
2013-09-08 20:58:00,80.7,63.6,29.91,ENE,68,0.0,0.0,56,0.00,,OVC048,0.00,VWS V14.01,2013-09-09 01:58:00,
2013-09-08 21:03:00,80.4,63.8,29.91,NE,45,0.0,0.0,57,0.00,,OVC048,0.00,VWS V14.01,2013-09-09 02:03:00,
2013-09-08 21:04:00,80.4,63.8,29.91,ENE,68,2.6,2.6,57,0.00,,OVC048,0.00,VWS V14.01,2013-09-09 02:04:00,
2013-09-08 21:05:00,80.2,64.1,29.91,NE,45,0.0,0.0,58,0.00,,OVC048,0.00,VWS V14.01,2013-09-09 02:05:00,
2013-09-08 21:08:00,80.0,63.9,29.91,NE,45,0.0,0.0,58,0.00,,OVC048,0.00,VWS V14.01,2013-09-09 02:08:00,
2013-09-08 21:10:00,80.0,63.9,29.91,ENE,68,0.0,0.0,58,0.00,,OVC048,0.00,VWS V14.01,2013-09-09 02:10:00,
2013-09-08 21:11:00,80.0,63.9,29.91,ENE,68,5.8,5.8,58,0.00,,OVC048,0.00,VWS V14.01,2013-09-09 02:11:00,
2013-09-08 21:13:00,79.8,64.2,29.91,NNE,22,0.0,0.0,59,0.00,,OVC048,0.00,VWS V14.01,2013-09-09 02:13:00,
2013-09-08 21:14:00,79.7,64.1,29.91,NE,45,0.0,0.0,59,0.00,,OVC048,0.00,VWS V14.01,2013-09-09 02:14:00,
2013-09-08 21:16:00,79.7,64.1,29.91,NNW,338,28.0,28.0,59,0.00,,OVC048,0.00,VWS V14.01,2013-09-09 02:16:00,
2013-09-08 21:18:00,79.5,64.4,29.91,ENE,68,0.0,0.0,60,0.00,,OVC048,0.00,VWS V14.01,2013-09-09 02:18:00,
2013-09-08 21:19:00,79.5,64.4,29.91,ENE,68,0.0,0.0,60,0.00,,OVC048,0.00,VWS V14.01,2013-09-09 02:19:00,
2013-09-08 21:20:00,79.5,64.4,29.91,ENE,68,0.0,0.0,60,0.00,,OVC048,0.00,VWS V14.01,2013-09-09 02:20:00,
2013-09-08 21:22:00,79.3,64.7,29.91,ENE,68,0.0,0.0,61,0.00,,OVC048,0.00,VWS V14.01,2013-09-09 02:22:00,
2013-09-08 21:24:00,79.1,64.5,29.91,ENE,68,0.0,0.0,61,0.00,,OVC048,0.00,VWS V14.01,2013-09-09 02:24:00,
2013-09-08 21:26:00,79.1,64.5,29.90,ENE,68,0.0,0.0,61,0.00,,OVC048,0.00,VWS V14.01,2013-09-09 02:26:00,
2013-09-08 21:30:00,79.1,64.5,29.91,ENE,68,0.0,0.0,61,0.00,,OVC048,0.00,VWS V14.01,2013-09-09 02:30:00,
2013-09-08 21:31:00,79.1,64.5,29.91,NE,45,0.0,0.0,61,0.00,,OVC048,0.00,VWS V14.01,2013-09-09 02:31:00,
2013-09-08 21:32:00,79.1,64.5,29.90,ENE,68,0.0,0.0,61,0.00,,OVC048,0.00,VWS V14.01,2013-09-09 02:32:00,
2013-09-08 21:33:00,79.1,64.5,29.90,ENE,68,0.0,0.0,61,0.00,,OVC048,0.00,VWS V14.01,2013-09-09 02:33:00,
2013-09-08 21:35:00,78.9,64.3,29.90,ENE,68,0.0,2.6,61,0.00,,OVC048,0.00,VWS V14.01,2013-09-09 02:35:00,
2013-09-08 21:37:00,78.9,64.8,29.90,East,90,0.0,0.0,62,0.00,,OVC048,0.00,VWS V14.01,2013-09-09 02:37:00,
2013-09-08 21:38:00,78.9,64.8,29.90,ENE,68,5.2,5.2,62,0.00,,OVC048,0.00,VWS V14.01,2013-09-09 02:38:00,
2013-09-08 21:40:00,78.8,64.7,29.90,ENE,68,0.0,0.0,62,0.00,,SCT050,0.00,VWS V14.01,2013-09-09 02:40:00,
2013-09-08 21:41:00,78.6,64.5,29.90,ENE,68,2.2,2.2,62,0.00,,SCT050,0.00,VWS V14.01,2013-09-09 02:41:00,
2013-09-08 21:43:00,78.6,64.5,29.90,East,90,0.0,0.0,62,0.00,,SCT050,0.00,VWS V14.01,2013-09-09 02:43:00,
2013-09-08 21:44:00,78.4,64.3,29.90,ENE,68,0.0,0.0,62,0.00,,SCT050,0.00,VWS V14.01,2013-09-09 02:44:00,
2013-09-08 21:45:00,78.6,64.5,29.90,ENE,68,0.0,0.0,62,0.00,,SCT050,0.00,VWS V14.01,2013-09-09 02:45:00,
2013-09-08 21:46:00,78.4,64.3,29.90,NE,45,0.0,0.0,62,0.00,,SCT050,0.00,VWS V14.01,2013-09-09 02:46:00,
2013-09-08 21:47:00,78.4,64.3,29.90,ENE,68,0.0,0.0,62,0.00,,SCT050,0.00,VWS V14.01,2013-09-09 02:47:00,
2013-09-08 21:50:00,78.4,64.3,29.90,NE,45,0.0,0.0,62,0.00,,SCT050,0.00,VWS V14.01,2013-09-09 02:50:00,
2013-09-08 21:51:00,78.2,64.1,29.91,NE,45,0.0,0.0,62,0.00,,SCT050,0.00,VWS V14.01,2013-09-09 02:51:00,
2013-09-08 21:52:00,78.2,64.1,29.90,NE,45,0.0,0.0,62,0.00,,SCT050,0.00,VWS V14.01,2013-09-09 02:52:00,
2013-09-08 21:55:00,78.2,64.1,29.91,NE,45,0.0,0.0,62,0.00,,SCT050,0.00,VWS V14.01,2013-09-09 02:55:00,
2013-09-08 21:56:00,78.0,63.9,29.91,NE,45,0.0,0.0,62,0.00,,SCT050,0.00,VWS V14.01,2013-09-09 02:56:00,
2013-09-08 21:58:00,78.0,64.4,29.91,NE,45,0.0,0.0,63,0.00,,SCT050,0.00,VWS V14.01,2013-09-09 02:58:00,
2013-09-08 22:00:00,78.0,64.4,29.91,ENE,68,4.4,4.4,63,0.00,,SCT050,0.00,VWS V14.01,2013-09-09 03:00:00,
2013-09-08 22:02:00,77.9,64.3,29.91,East,90,0.0,4.4,63,0.00,,SCT050,0.00,VWS V14.01,2013-09-09 03:02:00,
2013-09-08 22:06:00,77.9,64.8,29.91,NE,45,0.0,2.6,64,0.00,,SCT050,0.00,VWS V14.01,2013-09-09 03:06:00,
2013-09-08 22:07:00,77.7,64.6,29.91,NE,45,0.0,0.0,64,0.00,,SCT050,0.00,VWS V14.01,2013-09-09 03:07:00,
2013-09-08 22:08:00,77.5,64.4,29.91,NE,45,0.0,0.0,64,0.00,,SCT050,0.00,VWS V14.01,2013-09-09 03:08:00,
2013-09-08 22:12:00,77.7,64.6,29.90,NNE,22,0.0,0.0,64,0.00,,SCT050,0.00,VWS V14.01,2013-09-09 03:12:00,
2013-09-08 22:13:00,77.5,64.4,29.91,NE,45,5.2,5.2,64,0.00,,SCT050,0.00,VWS V14.01,2013-09-09 03:13:00,
2013-09-08 22:14:00,77.5,64.4,29.91,NE,45,0.0,5.2,64,0.00,,SCT050,0.00,VWS V14.01,2013-09-09 03:14:00,
2013-09-08 22:18:00,77.5,64.8,29.90,ENE,68,3.4,3.4,65,0.00,,SCT050,0.00,VWS V14.01,2013-09-09 03:18:00,
2013-09-08 22:20:00,77.3,64.6,29.90,NE,45,0.0,3.4,65,0.00,,SCT050,0.00,VWS V14.01,2013-09-09 03:20:00,
2013-09-08 22:21:00,77.5,64.8,29.90,NNW,338,28.0,28.0,65,0.00,,SCT050,0.00,VWS V14.01,2013-09-09 03:21:00,
2013-09-08 22:22:00,77.5,64.8,29.90,NE,45,1.2,28.0,65,0.00,,SCT050,0.00,VWS V14.01,2013-09-09 03:22:00,
2013-09-08 22:24:00,77.3,64.6,29.91,NE,45,0.0,1.2,65,0.00,,SCT050,0.00,VWS V14.01,2013-09-09 03:24:00,
2013-09-08 22:25:00,77.3,64.6,29.91,ENE,68,0.0,0.0,65,0.00,,SCT050,0.00,VWS V14.01,2013-09-09 03:25:00,
2013-09-08 22:27:00,77.1,64.4,29.91,NE,45,0.0,5.2,65,0.00,,SCT050,0.00,VWS V14.01,2013-09-09 03:27:00,
2013-09-08 22:28:00,77.1,64.4,29.91,NE,45,0.0,5.2,65,0.00,,SCT050,0.00,VWS V14.01,2013-09-09 03:28:00,
2013-09-08 22:29:00,77.1,64.4,29.91,ESE,112,0.0,0.0,65,0.00,,SCT050,0.00,VWS V14.01,2013-09-09 03:29:00,
2013-09-08 22:30:00,77.1,64.4,29.91,ENE,68,0.0,0.0,65,0.00,,SCT050,0.00,VWS V14.01,2013-09-09 03:30:00,
2013-09-08 22:36:00,76.8,64.2,29.91,SSE,158,0.0,0.0,65,0.00,,SCT050,0.00,VWS V14.01,2013-09-09 03:36:00,
2013-09-08 22:37:00,77.0,64.3,29.91,NE,45,0.0,0.0,65,0.00,,SCT050,0.00,VWS V14.01,2013-09-09 03:37:00,
2013-09-08 22:38:00,76.8,64.2,29.91,NNE,22,0.0,0.0,65,0.00,,SCT050,0.00,VWS V14.01,2013-09-09 03:38:00,
2013-09-08 22:42:00,76.6,64.4,29.91,NE,45,0.0,0.0,66,0.00,,CLR,0.00,VWS V14.01,2013-09-09 03:42:00,
2013-09-08 22:43:00,76.6,64.4,29.91,NE,45,0.0,0.0,66,0.00,,CLR,0.00,VWS V14.01,2013-09-09 03:43:00,
2013-09-08 22:44:00,76.6,64.4,29.91,SE,135,0.0,0.0,66,0.00,,CLR,0.00,VWS V14.01,2013-09-09 03:44:00,
2013-09-08 22:45:00,76.6,64.4,29.91,SE,135,0.0,0.0,66,0.00,,CLR,0.00,VWS V14.01,2013-09-09 03:45:00,
2013-09-08 22:48:00,76.4,64.2,29.92,North,0,0.0,0.0,66,0.00,,CLR,0.00,VWS V14.01,2013-09-09 03:48:00,
2013-09-08 22:49:00,76.4,64.2,29.91,NE,45,0.0,0.0,66,0.00,,CLR,0.00,VWS V14.01,2013-09-09 03:49:00,
2013-09-08 22:50:00,76.4,64.2,29.91,NE,45,0.0,0.0,66,0.00,,CLR,0.00,VWS V14.01,2013-09-09 03:50:00,
2013-09-08 22:53:00,76.2,64.0,29.91,South,180,0.0,0.0,66,0.00,,CLR,0.00,VWS V14.01,2013-09-09 03:53:00,
2013-09-08 22:54:00,76.1,63.9,29.91,South,180,0.0,0.0,66,0.00,,CLR,0.00,VWS V14.01,2013-09-09 03:54:00,
2013-09-08 22:55:00,76.2,64.0,29.91,SSE,158,0.0,0.0,66,0.00,,CLR,0.00,VWS V14.01,2013-09-09 03:55:00,
2013-09-08 22:59:00,76.2,64.4,29.92,NNE,22,0.0,0.0,67,0.00,,CLR,0.00,VWS V14.01,2013-09-09 03:59:00,
2013-09-08 23:00:00,76.2,64.4,29.92,ENE,68,0.0,0.0,67,0.00,,CLR,0.00,VWS V14.01,2013-09-09 04:00:00,
2013-09-08 23:01:00,76.2,64.4,29.92,ENE,68,0.0,0.0,67,0.00,,CLR,0.00,VWS V14.01,2013-09-09 04:01:00,
2013-09-08 23:02:00,76.1,64.4,29.91,ENE,68,0.0,0.0,67,0.00,,CLR,0.00,VWS V14.01,2013-09-09 04:02:00,
2013-09-08 23:04:00,76.1,64.4,29.91,ENE,68,0.0,0.0,67,0.00,,CLR,0.00,VWS V14.01,2013-09-09 04:04:00,
2013-09-08 23:06:00,76.1,64.4,29.92,ENE,68,0.0,0.0,67,0.00,,CLR,0.00,VWS V14.01,2013-09-09 04:06:00,
2013-09-08 23:07:00,76.1,64.4,29.92,ESE,112,0.0,0.0,67,0.00,,CLR,0.00,VWS V14.01,2013-09-09 04:07:00,
2013-09-08 23:11:00,75.9,64.6,29.92,ENE,68,0.0,0.0,68,0.00,,CLR,0.00,VWS V14.01,2013-09-09 04:11:00,
2013-09-08 23:12:00,75.9,64.6,29.92,ENE,68,0.0,0.0,68,0.00,,CLR,0.00,VWS V14.01,2013-09-09 04:12:00,
2013-09-08 23:16:00,75.9,64.6,29.91,ENE,68,0.0,0.0,68,0.00,,CLR,0.00,VWS V14.01,2013-09-09 04:16:00,
2013-09-08 23:17:00,75.9,64.6,29.91,ENE,68,0.0,0.0,68,0.00,,CLR,0.00,VWS V14.01,2013-09-09 04:17:00,
2013-09-08 23:18:00,75.9,64.6,29.91,NE,45,0.0,0.0,68,0.00,,CLR,0.00,VWS V14.01,2013-09-09 04:18:00,
2013-09-08 23:20:00,75.9,64.6,29.92,NE,45,0.0,0.0,68,0.00,,CLR,0.00,VWS V14.01,2013-09-09 04:20:00,
2013-09-08 23:21:00,75.9,64.6,29.92,NE,45,0.0,0.0,68,0.00,,CLR,0.00,VWS V14.01,2013-09-09 04:21:00,
2013-09-08 23:22:00,75.9,64.6,29.92,NE,45,0.0,0.0,68,0.00,,CLR,0.00,VWS V14.01,2013-09-09 04:22:00,
2013-09-08 23:24:00,75.5,64.6,29.92,NE,45,0.0,0.0,69,0.00,,CLR,0.00,VWS V14.01,2013-09-09 04:24:00,
2013-09-08 23:26:00,75.5,64.6,29.92,NE,45,0.0,0.0,69,0.00,,CLR,0.00,VWS V14.01,2013-09-09 04:26:00,
2013-09-08 23:28:00,75.5,64.6,29.91,NE,45,0.0,0.0,69,0.00,,CLR,0.00,VWS V14.01,2013-09-09 04:28:00,
2013-09-08 23:32:00,75.5,64.6,29.91,NE,45,0.0,0.0,69,0.00,,CLR,0.00,VWS V14.01,2013-09-09 04:32:00,
2013-09-08 23:33:00,75.3,64.4,29.91,NE,45,0.0,0.0,69,0.00,,CLR,0.00,VWS V14.01,2013-09-09 04:33:00,
2013-09-08 23:34:00,75.3,64.4,29.91,NE,45,0.0,0.0,69,0.00,,CLR,0.00,VWS V14.01,2013-09-09 04:34:00,
2013-09-08 23:36:00,75.3,64.4,29.92,NE,45,0.0,0.0,69,0.00,,CLR,0.00,VWS V14.01,2013-09-09 04:36:00,
2013-09-08 23:40:00,75.3,64.8,29.92,East,90,0.0,0.0,70,0.00,,,0.00,VWS V14.01,2013-09-09 04:40:00,
2013-09-08 23:41:00,75.3,64.8,29.91,East,90,0.0,0.0,70,0.00,,,0.00,VWS V14.01,2013-09-09 04:41:00,
2013-09-08 23:44:00,75.2,64.8,29.91,East,90,0.0,0.0,70,0.00,,,0.00,VWS V14.01,2013-09-09 04:44:00,
2013-09-08 23:46:00,75.0,64.6,29.92,East,90,0.0,0.0,70,0.00,,,0.00,VWS V14.01,2013-09-09 04:46:00,
2013-09-08 23:50:00,75.0,64.6,29.92,East,90,0.0,0.0,70,0.00,,,0.00,VWS V14.01,2013-09-09 04:50:00,
2013-09-08 23:51:00,75.0,64.6,29.91,East,90,0.0,0.0,70,0.00,,,0.00,VWS V14.01,2013-09-09 04:51:00,
2013-09-08 23:52:00,74.8,64.4,29.92,ENE,68,0.0,0.0,70,0.00,,,0.00,VWS V14.01,2013-09-09 04:52:00,
2013-09-08 23:56:00,74.8,64.8,29.92,ENE,68,0.0,4.8,71,0.00,,,0.00,VWS V14.01,2013-09-09 04:56:00,
2013-09-08 23:57:00,75.0,65.0,29.92,ENE,68,0.0,0.0,71,0.00,,,0.00,VWS V14.01,2013-09-09 04:57:00,
2013-09-08 23:58:00,74.8,64.8,29.92,ENE,68,0.0,0.0,71,0.00,,,0.00,VWS V14.01,2013-09-09 04:58:00,
2013-09-08 23:59:00,74.8,64.8,29.92,ENE,68,0.0,0.0,71,0.00,,,0.00,VWS V14.01,2013-09-09 04:59:00,